<?xml version='1.0' encoding='UTF-8'?><gpx version="1.1" creator="JPX - https://github.com/jenetics/jpx" xmlns="http://www.topografix.com/GPX/1/1"><trk><trkseg><trkpt lat="45.703939" lon="9.5060639"><ele>271.0</ele><time>2026-04-19T09:55:35.026Z</time></trkpt><trkpt lat="45.7039781" lon="9.5061433"><ele>271.0</ele><time>2026-04-19T09:55:39.045Z</time></trkpt><trkpt lat="45.7040281" lon="9.5062168"><ele>271.0</ele><time>2026-04-19T09:55:43.237Z</time></trkpt><trkpt lat="45.7040808" lon="9.5062799"><ele>271.0</ele><time>2026-04-19T09:55:47.256Z</time></trkpt><trkpt lat="45.7041246" lon="9.5063615"><ele>271.0</ele><time>2026-04-19T09:55:52.201Z</time></trkpt><trkpt lat="45.7041595" lon="9.5064409"><ele>271.0</ele><time>2026-04-19T09:55:57.184Z</time></trkpt><trkpt lat="45.7041757" lon="9.5065306"><ele>271.0</ele><time>2026-04-19T09:56:02.105Z</time></trkpt><trkpt lat="45.7041694" lon="9.5066263"><ele>271.16666666666663</ele><time>2026-04-19T09:56:06.982Z</time></trkpt><trkpt lat="45.7041796" lon="9.506721"><ele>271.3333333333333</ele><time>2026-04-19T09:56:11.825Z</time></trkpt><trkpt lat="45.7042064" lon="9.5068048"><ele>271.5</ele><time>2026-04-19T09:56:16.723Z</time></trkpt><trkpt lat="45.704247" lon="9.5069415"><ele>271.6666666666667</ele><time>2026-04-19T09:56:36.143Z</time></trkpt><trkpt lat="45.7042785" lon="9.5070408"><ele>271.83333333333337</ele><time>2026-04-19T09:56:41.046Z</time></trkpt><trkpt lat="45.7043089" lon="9.50713"><ele>272.0</ele><time>2026-04-19T09:56:43.944Z</time></trkpt><trkpt lat="45.7043432" lon="9.5072313"><ele>271.99999999999994</ele><time>2026-04-19T09:56:47.862Z</time></trkpt><trkpt lat="45.7043747" lon="9.5073119"><ele>272.0</ele><time>2026-04-19T09:56:51.806Z</time></trkpt><trkpt lat="45.7044439" lon="9.5073363"><ele>272.0</ele><time>2026-04-19T09:56:56.743Z</time></trkpt><trkpt lat="45.7045027" lon="9.5072649"><ele>272.0</ele><time>2026-04-19T09:57:02.687Z</time></trkpt><trkpt lat="45.7045593" lon="9.5072013"><ele>272.0</ele><time>2026-04-19T09:57:07.625Z</time></trkpt><trkpt lat="45.7046263" lon="9.50718"><ele>271.99999999999994</ele><time>2026-04-19T09:57:12.441Z</time></trkpt><trkpt lat="45.7046919" lon="9.5071294"><ele>272.0</ele><time>2026-04-19T09:57:21.242Z</time></trkpt><trkpt lat="45.704754" lon="9.5070722"><ele>272.57142857142856</ele><time>2026-04-19T09:57:28.003Z</time></trkpt><trkpt lat="45.7048094" lon="9.507018"><ele>273.1428571428571</ele><time>2026-04-19T09:57:32.907Z</time></trkpt><trkpt lat="45.7048698" lon="9.5069658"><ele>273.7142857142857</ele><time>2026-04-19T09:57:36.823Z</time></trkpt><trkpt lat="45.7049196" lon="9.5069075"><ele>274.2857142857143</ele><time>2026-04-19T09:57:40.701Z</time></trkpt><trkpt lat="45.7049721" lon="9.5068479"><ele>274.8571428571429</ele><time>2026-04-19T09:57:46.583Z</time></trkpt><trkpt lat="45.7050427" lon="9.5068243"><ele>275.42857142857144</ele><time>2026-04-19T09:57:52.465Z</time></trkpt><trkpt lat="45.7051" lon="9.506781"><ele>276.0</ele><time>2026-04-19T09:57:57.303Z</time></trkpt><trkpt lat="45.705153" lon="9.506732"><ele>276.0</ele><time>2026-04-19T09:58:04.177Z</time></trkpt><trkpt lat="45.7052155" lon="9.5066979"><ele>276.0</ele><time>2026-04-19T09:58:11.083Z</time></trkpt><trkpt lat="45.7052781" lon="9.5066868"><ele>276.0</ele><time>2026-04-19T09:58:14.984Z</time></trkpt><trkpt lat="45.7053453" lon="9.5066759"><ele>276.0</ele><time>2026-04-19T09:58:18.864Z</time></trkpt><trkpt lat="45.705408" lon="9.5066463"><ele>276.0</ele><time>2026-04-19T09:58:22.684Z</time></trkpt><trkpt lat="45.7054595" lon="9.5065912"><ele>276.0</ele><time>2026-04-19T09:58:26.564Z</time></trkpt><trkpt lat="45.705485" lon="9.5065019"><ele>276.0</ele><time>2026-04-19T09:58:32.348Z</time></trkpt><trkpt lat="45.7054671" lon="9.5064104"><ele>276.57142857142856</ele><time>2026-04-19T09:58:38.985Z</time></trkpt><trkpt lat="45.7054373" lon="9.5063126"><ele>277.14285714285717</ele><time>2026-04-19T09:58:43.802Z</time></trkpt><trkpt lat="45.7054193" lon="9.506207"><ele>277.7142857142857</ele><time>2026-04-19T09:58:48.664Z</time></trkpt><trkpt lat="45.7053936" lon="9.5061074"><ele>278.2857142857143</ele><time>2026-04-19T09:58:54.505Z</time></trkpt><trkpt lat="45.705364" lon="9.506025"><ele>278.8571428571429</ele><time>2026-04-19T09:58:59.364Z</time></trkpt><trkpt lat="45.7053266" lon="9.5059413"><ele>279.42857142857144</ele><time>2026-04-19T09:59:06.086Z</time></trkpt><trkpt lat="45.7052865" lon="9.5058602"><ele>280.0</ele><time>2026-04-19T09:59:11.945Z</time></trkpt><trkpt lat="45.7052582" lon="9.5057592"><ele>280.0</ele><time>2026-04-19T09:59:15.803Z</time></trkpt><trkpt lat="45.7052315" lon="9.5056631"><ele>280.0</ele><time>2026-04-19T09:59:19.686Z</time></trkpt><trkpt lat="45.7052252" lon="9.5055683"><ele>280.0</ele><time>2026-04-19T09:59:24.423Z</time></trkpt><trkpt lat="45.7052713" lon="9.5054879"><ele>280.0</ele><time>2026-04-19T09:59:33.002Z</time></trkpt><trkpt lat="45.7053305" lon="9.5054416"><ele>280.0</ele><time>2026-04-19T09:59:36.865Z</time></trkpt><trkpt lat="45.7054031" lon="9.5053812"><ele>280.0</ele><time>2026-04-19T09:59:40.722Z</time></trkpt><trkpt lat="45.7054675" lon="9.5053282"><ele>280.0</ele><time>2026-04-19T09:59:44.585Z</time></trkpt><trkpt lat="45.7055287" lon="9.5052886"><ele>279.85714285714283</ele><time>2026-04-19T09:59:50.401Z</time></trkpt><trkpt lat="45.705587" lon="9.5052445"><ele>279.7142857142857</ele><time>2026-04-19T09:59:56.223Z</time></trkpt><trkpt lat="45.7056489" lon="9.505203"><ele>279.57142857142856</ele><time>2026-04-19T10:00:03.024Z</time></trkpt><trkpt lat="45.7057114" lon="9.5051712"><ele>279.42857142857144</ele><time>2026-04-19T10:00:07.903Z</time></trkpt><trkpt lat="45.7057893" lon="9.5051292"><ele>279.2857142857143</ele><time>2026-04-19T10:00:11.825Z</time></trkpt><trkpt lat="45.7058585" lon="9.5050703"><ele>279.1428571428571</ele><time>2026-04-19T10:00:15.723Z</time></trkpt><trkpt lat="45.7059008" lon="9.5049989"><ele>279.0</ele><time>2026-04-19T10:00:22.643Z</time></trkpt><trkpt lat="45.7059597" lon="9.5049653"><ele>278.99999999999994</ele><time>2026-04-19T10:00:29.605Z</time></trkpt><trkpt lat="45.706036" lon="9.504936"><ele>279.0</ele><time>2026-04-19T10:00:35.724Z</time></trkpt><trkpt lat="45.706099" lon="9.5048989"><ele>279.0</ele><time>2026-04-19T10:00:39.682Z</time></trkpt><trkpt lat="45.7061626" lon="9.5048586"><ele>279.0</ele><time>2026-04-19T10:00:43.665Z</time></trkpt><trkpt lat="45.7062302" lon="9.5048185"><ele>279.0</ele><time>2026-04-19T10:00:49.562Z</time></trkpt><trkpt lat="45.706293" lon="9.5047682"><ele>278.99999999999994</ele><time>2026-04-19T10:00:56.423Z</time></trkpt><trkpt lat="45.7063513" lon="9.5047179"><ele>279.0</ele><time>2026-04-19T10:01:01.203Z</time></trkpt><trkpt lat="45.7064175" lon="9.5046909"><ele>280.57142857142856</ele><time>2026-04-19T10:01:08.102Z</time></trkpt><trkpt lat="45.7064936" lon="9.5046892"><ele>282.1428571428571</ele><time>2026-04-19T10:01:14.044Z</time></trkpt><trkpt lat="45.7065524" lon="9.5046362"><ele>283.7142857142857</ele><time>2026-04-19T10:01:17.861Z</time></trkpt><trkpt lat="45.7066061" lon="9.50458"><ele>285.2857142857143</ele><time>2026-04-19T10:01:21.706Z</time></trkpt><trkpt lat="45.7066636" lon="9.5045396"><ele>286.8571428571429</ele><time>2026-04-19T10:01:27.546Z</time></trkpt><trkpt lat="45.7067252" lon="9.504504"><ele>288.42857142857144</ele><time>2026-04-19T10:01:33.382Z</time></trkpt><trkpt lat="45.706786" lon="9.5044576"><ele>290.0</ele><time>2026-04-19T10:01:40.163Z</time></trkpt><trkpt lat="45.7068539" lon="9.5044526"><ele>291.42857142857144</ele><time>2026-04-19T10:01:44.985Z</time></trkpt><trkpt lat="45.7069244" lon="9.5044214"><ele>292.8571428571429</ele><time>2026-04-19T10:01:49.802Z</time></trkpt><trkpt lat="45.7069923" lon="9.504385"><ele>294.2857142857143</ele><time>2026-04-19T10:01:53.666Z</time></trkpt><trkpt lat="45.7070548" lon="9.5043545"><ele>295.7142857142857</ele><time>2026-04-19T10:01:58.563Z</time></trkpt><trkpt lat="45.7071169" lon="9.5043204"><ele>297.1428571428571</ele><time>2026-04-19T10:02:06.464Z</time></trkpt><trkpt lat="45.7071712" lon="9.5042564"><ele>298.57142857142856</ele><time>2026-04-19T10:02:12.227Z</time></trkpt><trkpt lat="45.7072406" lon="9.5041951"><ele>300.0</ele><time>2026-04-19T10:02:17.283Z</time></trkpt><trkpt lat="45.7073008" lon="9.5041627"><ele>299.99999999999994</ele><time>2026-04-19T10:02:21.185Z</time></trkpt><trkpt lat="45.707356" lon="9.5041116"><ele>300.0</ele><time>2026-04-19T10:02:29.122Z</time></trkpt><trkpt lat="45.7074118" lon="9.5040386"><ele>300.0</ele><time>2026-04-19T10:02:36.044Z</time></trkpt><trkpt lat="45.7074597" lon="9.5039573"><ele>300.0</ele><time>2026-04-19T10:02:40.946Z</time></trkpt><trkpt lat="45.7074813" lon="9.5038503"><ele>300.0</ele><time>2026-04-19T10:02:45.783Z</time></trkpt><trkpt lat="45.7074754" lon="9.5037562"><ele>299.99999999999994</ele><time>2026-04-19T10:02:49.688Z</time></trkpt><trkpt lat="45.707472" lon="9.5036554"><ele>300.0</ele><time>2026-04-19T10:02:54.523Z</time></trkpt><trkpt lat="45.7074763" lon="9.5035628"><ele>300.2857142857143</ele><time>2026-04-19T10:02:59.284Z</time></trkpt><trkpt lat="45.7074717" lon="9.5034646"><ele>300.57142857142856</ele><time>2026-04-19T10:03:06.964Z</time></trkpt><trkpt lat="45.7074717" lon="9.5033605"><ele>300.8571428571429</ele><time>2026-04-19T10:03:12.724Z</time></trkpt><trkpt lat="45.7074581" lon="9.5032685"><ele>301.1428571428571</ele><time>2026-04-19T10:03:16.585Z</time></trkpt><trkpt lat="45.7074302" lon="9.5031795"><ele>301.42857142857144</ele><time>2026-04-19T10:03:21.345Z</time></trkpt><trkpt lat="45.7074069" lon="9.5030933"><ele>301.7142857142857</ele><time>2026-04-19T10:03:27.086Z</time></trkpt><trkpt lat="45.7074106" lon="9.5029938"><ele>302.0</ele><time>2026-04-19T10:03:31.882Z</time></trkpt><trkpt lat="45.7074333" lon="9.5029072"><ele>302.5714285714286</ele><time>2026-04-19T10:03:35.726Z</time></trkpt><trkpt lat="45.7074334" lon="9.5028133"><ele>303.14285714285717</ele><time>2026-04-19T10:03:42.405Z</time></trkpt><trkpt lat="45.7074297" lon="9.5027137"><ele>303.7142857142857</ele><time>2026-04-19T10:03:49.163Z</time></trkpt><trkpt lat="45.7074519" lon="9.5026165"><ele>304.28571428571433</ele><time>2026-04-19T10:03:54.004Z</time></trkpt><trkpt lat="45.7074538" lon="9.5025242"><ele>304.8571428571429</ele><time>2026-04-19T10:03:58.887Z</time></trkpt><trkpt lat="45.7074331" lon="9.5024368"><ele>305.42857142857144</ele><time>2026-04-19T10:04:02.804Z</time></trkpt><trkpt lat="45.7074218" lon="9.5023403"><ele>306.0</ele><time>2026-04-19T10:04:08.624Z</time></trkpt><trkpt lat="45.7074714" lon="9.502272"><ele>306.0</ele><time>2026-04-19T10:04:14.823Z</time></trkpt><trkpt lat="45.7075192" lon="9.5022025"><ele>306.0</ele><time>2026-04-19T10:04:20.01Z</time></trkpt><trkpt lat="45.7075693" lon="9.5021466"><ele>306.0</ele><time>2026-04-19T10:04:26.238Z</time></trkpt><trkpt lat="45.7076376" lon="9.5021356"><ele>306.0</ele><time>2026-04-19T10:04:33.27Z</time></trkpt><trkpt lat="45.7077062" lon="9.5021504"><ele>306.0</ele><time>2026-04-19T10:04:38.293Z</time></trkpt><trkpt lat="45.7077739" lon="9.5021837"><ele>306.0</ele><time>2026-04-19T10:04:44.22Z</time></trkpt><trkpt lat="45.7078387" lon="9.502199"><ele>306.0</ele><time>2026-04-19T10:04:50.286Z</time></trkpt><trkpt lat="45.7079003" lon="9.5022187"><ele>309.1428571428571</ele><time>2026-04-19T10:04:55.27Z</time></trkpt><trkpt lat="45.7079631" lon="9.5022506"><ele>312.2857142857143</ele><time>2026-04-19T10:05:03.206Z</time></trkpt><trkpt lat="45.7080358" lon="9.5022522"><ele>315.42857142857144</ele><time>2026-04-19T10:05:09.233Z</time></trkpt><trkpt lat="45.7081003" lon="9.5022503"><ele>318.57142857142856</ele><time>2026-04-19T10:05:17.17Z</time></trkpt><trkpt lat="45.7081657" lon="9.502286"><ele>321.7142857142857</ele><time>2026-04-19T10:05:27.215Z</time></trkpt><trkpt lat="45.7082252" lon="9.5023363"><ele>324.85714285714283</ele><time>2026-04-19T10:05:35.252Z</time></trkpt><trkpt lat="45.7082898" lon="9.5023461"><ele>328.0</ele><time>2026-04-19T10:05:41.279Z</time></trkpt><trkpt lat="45.7083509" lon="9.5023692"><ele>327.99999999999994</ele><time>2026-04-19T10:05:49.215Z</time></trkpt><trkpt lat="45.7084183" lon="9.502395"><ele>328.0</ele><time>2026-04-19T10:05:58.256Z</time></trkpt><trkpt lat="45.7084753" lon="9.5024457"><ele>328.0</ele><time>2026-04-19T10:06:05.288Z</time></trkpt><trkpt lat="45.7085012" lon="9.5025292"><ele>328.0</ele><time>2026-04-19T10:06:11.215Z</time></trkpt><trkpt lat="45.7084745" lon="9.5026231"><ele>328.0</ele><time>2026-04-19T10:06:21.243Z</time></trkpt><trkpt lat="45.7084746" lon="9.5027285"><ele>327.99999999999994</ele><time>2026-04-19T10:06:26.283Z</time></trkpt><trkpt lat="45.7084923" lon="9.5028191"><ele>328.0</ele><time>2026-04-19T10:06:34.141Z</time></trkpt><trkpt lat="45.7085267" lon="9.5029017"><ele>327.4285714285714</ele><time>2026-04-19T10:06:39.305Z</time></trkpt><trkpt lat="45.7085928" lon="9.5029411"><ele>326.85714285714283</ele><time>2026-04-19T10:06:44.266Z</time></trkpt><trkpt lat="45.7086496" lon="9.5028924"><ele>326.2857142857143</ele><time>2026-04-19T10:06:56.219Z</time></trkpt><trkpt lat="45.7087031" lon="9.5028356"><ele>325.71428571428567</ele><time>2026-04-19T10:07:06.186Z</time></trkpt><trkpt lat="45.7087615" lon="9.5027862"><ele>325.1428571428571</ele><time>2026-04-19T10:07:12.292Z</time></trkpt><trkpt lat="45.7088174" lon="9.5027368"><ele>324.57142857142856</ele><time>2026-04-19T10:07:19.223Z</time></trkpt><trkpt lat="45.7088779" lon="9.5026698"><ele>324.0</ele><time>2026-04-19T10:07:27.26Z</time></trkpt><trkpt lat="45.70894" lon="9.5026181"><ele>326.7142857142857</ele><time>2026-04-19T10:07:32.178Z</time></trkpt><trkpt lat="45.7089984" lon="9.5025836"><ele>329.42857142857144</ele><time>2026-04-19T10:07:38.302Z</time></trkpt><trkpt lat="45.7090599" lon="9.5025491"><ele>332.1428571428571</ele><time>2026-04-19T10:07:44.587Z</time></trkpt><trkpt lat="45.7091201" lon="9.5024909"><ele>334.8571428571429</ele><time>2026-04-19T10:07:50.664Z</time></trkpt><trkpt lat="45.7091808" lon="9.5024474"><ele>337.57142857142856</ele><time>2026-04-19T10:07:55.882Z</time></trkpt><trkpt lat="45.709248" lon="9.5023963"><ele>340.2857142857143</ele><time>2026-04-19T10:08:03.185Z</time></trkpt><trkpt lat="45.7092974" lon="9.5023322"><ele>343.0</ele><time>2026-04-19T10:08:06.881Z</time></trkpt><trkpt lat="45.7093551" lon="9.502275"><ele>342.85714285714283</ele><time>2026-04-19T10:08:11.259Z</time></trkpt><trkpt lat="45.7094119" lon="9.5022131"><ele>342.7142857142857</ele><time>2026-04-19T10:08:17.224Z</time></trkpt><trkpt lat="45.7094717" lon="9.5021467"><ele>342.57142857142856</ele><time>2026-04-19T10:08:25.244Z</time></trkpt><trkpt lat="45.709523" lon="9.5020906"><ele>342.42857142857144</ele><time>2026-04-19T10:08:30.245Z</time></trkpt><trkpt lat="45.7095836" lon="9.5020348"><ele>342.2857142857143</ele><time>2026-04-19T10:08:35.268Z</time></trkpt><trkpt lat="45.709653" lon="9.5019846"><ele>342.1428571428571</ele><time>2026-04-19T10:08:42.3Z</time></trkpt><trkpt lat="45.7097006" lon="9.5019241"><ele>342.0</ele><time>2026-04-19T10:08:46.217Z</time></trkpt><trkpt lat="45.7097455" lon="9.5018552"><ele>345.1428571428571</ele><time>2026-04-19T10:08:53.249Z</time></trkpt><trkpt lat="45.7098075" lon="9.5017838"><ele>348.2857142857143</ele><time>2026-04-19T10:08:58.272Z</time></trkpt><trkpt lat="45.7098699" lon="9.5017197"><ele>351.42857142857144</ele><time>2026-04-19T10:09:02.142Z</time></trkpt><trkpt lat="45.7099389" lon="9.5016783"><ele>354.57142857142856</ele><time>2026-04-19T10:09:07.212Z</time></trkpt><trkpt lat="45.7100005" lon="9.5016448"><ele>357.7142857142857</ele><time>2026-04-19T10:09:14.244Z</time></trkpt><trkpt lat="45.7100676" lon="9.501583"><ele>360.85714285714283</ele><time>2026-04-19T10:09:20.272Z</time></trkpt><trkpt lat="45.7101212" lon="9.501525"><ele>364.0</ele><time>2026-04-19T10:09:27.203Z</time></trkpt><trkpt lat="45.7101785" lon="9.5014762"><ele>362.7142857142857</ele><time>2026-04-19T10:09:31.186Z</time></trkpt><trkpt lat="45.7102498" lon="9.5014581"><ele>361.42857142857144</ele><time>2026-04-19T10:09:35.262Z</time></trkpt><trkpt lat="45.7103159" lon="9.5014172"><ele>360.1428571428571</ele><time>2026-04-19T10:09:41.188Z</time></trkpt><trkpt lat="45.7103854" lon="9.5014005"><ele>358.8571428571429</ele><time>2026-04-19T10:09:48.299Z</time></trkpt><trkpt lat="45.7104456" lon="9.5013555"><ele>357.57142857142856</ele><time>2026-04-19T10:09:55.23Z</time></trkpt><trkpt lat="45.7105031" lon="9.5013061"><ele>356.2857142857143</ele><time>2026-04-19T10:10:01.257Z</time></trkpt><trkpt lat="45.7105665" lon="9.5012576"><ele>355.0</ele><time>2026-04-19T10:10:05.276Z</time></trkpt><trkpt lat="45.7106211" lon="9.5011925"><ele>357.85714285714283</ele><time>2026-04-19T10:10:09.294Z</time></trkpt><trkpt lat="45.7106844" lon="9.5011347"><ele>360.7142857142857</ele><time>2026-04-19T10:10:14.317Z</time></trkpt><trkpt lat="45.7107278" lon="9.501063"><ele>363.57142857142856</ele><time>2026-04-19T10:10:18.181Z</time></trkpt><trkpt lat="45.7107879" lon="9.500986"><ele>366.42857142857144</ele><time>2026-04-19T10:10:23.224Z</time></trkpt><trkpt lat="45.710838" lon="9.5009105"><ele>369.2857142857143</ele><time>2026-04-19T10:10:28.182Z</time></trkpt><trkpt lat="45.7109069" lon="9.5008733"><ele>372.14285714285717</ele><time>2026-04-19T10:10:33.224Z</time></trkpt><trkpt lat="45.7109682" lon="9.5009327"><ele>375.0</ele><time>2026-04-19T10:10:41.225Z</time></trkpt><trkpt lat="45.7110317" lon="9.5009922"><ele>375.7142857142857</ele><time>2026-04-19T10:10:46.186Z</time></trkpt><trkpt lat="45.7110878" lon="9.5010602"><ele>376.4285714285714</ele><time>2026-04-19T10:10:50.22Z</time></trkpt><trkpt lat="45.7111355" lon="9.501135"><ele>377.1428571428571</ele><time>2026-04-19T10:10:54.146Z</time></trkpt><trkpt lat="45.7111824" lon="9.5012191"><ele>377.8571428571429</ele><time>2026-04-19T10:10:58.222Z</time></trkpt><trkpt lat="45.7112328" lon="9.5012931"><ele>378.57142857142856</ele><time>2026-04-19T10:11:03.285Z</time></trkpt><trkpt lat="45.7112903" lon="9.5013569"><ele>379.2857142857143</ele><time>2026-04-19T10:11:09.265Z</time></trkpt><trkpt lat="45.7113458" lon="9.5014131"><ele>380.0</ele><time>2026-04-19T10:11:16.183Z</time></trkpt><trkpt lat="45.711417" lon="9.501459"><ele>376.8571428571429</ele><time>2026-04-19T10:11:21.219Z</time></trkpt><trkpt lat="45.711472" lon="9.5015073"><ele>373.7142857142857</ele><time>2026-04-19T10:11:24.233Z</time></trkpt><trkpt lat="45.711531" lon="9.5015401"><ele>370.57142857142856</ele><time>2026-04-19T10:11:27.246Z</time></trkpt><trkpt lat="45.7115988" lon="9.5015605"><ele>367.42857142857144</ele><time>2026-04-19T10:11:33.274Z</time></trkpt><trkpt lat="45.7116627" lon="9.501527"><ele>364.2857142857143</ele><time>2026-04-19T10:11:49.246Z</time></trkpt><trkpt lat="45.7117212" lon="9.5014709"><ele>361.14285714285717</ele><time>2026-04-19T10:11:56.204Z</time></trkpt><trkpt lat="45.7117797" lon="9.5014248"><ele>358.0</ele><time>2026-04-19T10:12:02.204Z</time></trkpt><trkpt lat="45.7118428" lon="9.5013975"><ele>358.00000000000006</ele><time>2026-04-19T10:12:09.236Z</time></trkpt><trkpt lat="45.7119048" lon="9.5013565"><ele>358.0</ele><time>2026-04-19T10:12:17.272Z</time></trkpt><trkpt lat="45.7119709" lon="9.501309"><ele>358.0</ele><time>2026-04-19T10:12:22.295Z</time></trkpt><trkpt lat="45.7120257" lon="9.5012553"><ele>358.0</ele><time>2026-04-19T10:12:26.213Z</time></trkpt><trkpt lat="45.7120976" lon="9.5012089"><ele>358.0</ele><time>2026-04-19T10:12:30.064Z</time></trkpt><trkpt lat="45.7121626" lon="9.50118"><ele>358.00000000000006</ele><time>2026-04-19T10:12:34.221Z</time></trkpt><trkpt lat="45.7122293" lon="9.5011262"><ele>358.0</ele><time>2026-04-19T10:12:39.203Z</time></trkpt><trkpt lat="45.7122956" lon="9.5010631"><ele>361.5714285714286</ele><time>2026-04-19T10:12:43.201Z</time></trkpt><trkpt lat="45.7123607" lon="9.5010029"><ele>365.14285714285717</ele><time>2026-04-19T10:12:48.246Z</time></trkpt><trkpt lat="45.7124162" lon="9.5009406"><ele>368.7142857142857</ele><time>2026-04-19T10:12:55.225Z</time></trkpt><trkpt lat="45.7124895" lon="9.5009201"><ele>372.28571428571433</ele><time>2026-04-19T10:13:02.222Z</time></trkpt><trkpt lat="45.7125511" lon="9.5008959"><ele>375.85714285714283</ele><time>2026-04-19T10:13:06.193Z</time></trkpt><trkpt lat="45.7126158" lon="9.500888"><ele>379.42857142857144</ele><time>2026-04-19T10:13:10.211Z</time></trkpt><trkpt lat="45.712679" lon="9.500873"><ele>383.0</ele><time>2026-04-19T10:13:15.234Z</time></trkpt><trkpt lat="45.7127422" lon="9.5008524"><ele>383.0</ele><time>2026-04-19T10:13:24.322Z</time></trkpt><trkpt lat="45.7127985" lon="9.5007771"><ele>383.0</ele><time>2026-04-19T10:13:30.265Z</time></trkpt><trkpt lat="45.7128697" lon="9.5007514"><ele>383.0</ele><time>2026-04-19T10:13:35.2Z</time></trkpt><trkpt lat="45.712939" lon="9.5007384"><ele>383.0</ele><time>2026-04-19T10:13:39.242Z</time></trkpt><trkpt lat="45.7130022" lon="9.5007028"><ele>383.0</ele><time>2026-04-19T10:13:44.266Z</time></trkpt><trkpt lat="45.7130723" lon="9.500672"><ele>383.0</ele><time>2026-04-19T10:13:49.224Z</time></trkpt><trkpt lat="45.7131194" lon="9.5006121"><ele>383.0</ele><time>2026-04-19T10:13:54.209Z</time></trkpt><trkpt lat="45.7131536" lon="9.5005346"><ele>383.0</ele><time>2026-04-19T10:13:59.232Z</time></trkpt><trkpt lat="45.7132206" lon="9.5004933"><ele>383.0</ele><time>2026-04-19T10:14:06.264Z</time></trkpt><trkpt lat="45.7132932" lon="9.5004555"><ele>383.0</ele><time>2026-04-19T10:14:12.263Z</time></trkpt><trkpt lat="45.7133553" lon="9.5004081"><ele>383.0</ele><time>2026-04-19T10:14:16.31Z</time></trkpt><trkpt lat="45.7134123" lon="9.5004473"><ele>383.0</ele><time>2026-04-19T10:14:23.24Z</time></trkpt><trkpt lat="45.7134807" lon="9.5005302"><ele>383.0</ele><time>2026-04-19T10:14:47.249Z</time></trkpt><trkpt lat="45.7134906" lon="9.500639"><ele>383.0</ele><time>2026-04-19T10:15:16.189Z</time></trkpt><trkpt lat="45.713512" lon="9.5007372"><ele>383.0</ele><time>2026-04-19T10:15:22.211Z</time></trkpt><trkpt lat="45.7135571" lon="9.5008116"><ele>383.0</ele><time>2026-04-19T10:15:32.257Z</time></trkpt><trkpt lat="45.7136193" lon="9.5008454"><ele>383.0</ele><time>2026-04-19T10:15:40.195Z</time></trkpt><trkpt lat="45.7135577" lon="9.5008683"><ele>383.0</ele><time>2026-04-19T10:15:59.168Z</time></trkpt><trkpt lat="45.713505" lon="9.5007989"><ele>383.0</ele><time>2026-04-19T10:16:06.025Z</time></trkpt><trkpt lat="45.7134494" lon="9.5007155"><ele>383.0</ele><time>2026-04-19T10:16:12.022Z</time></trkpt><trkpt lat="45.7133954" lon="9.5006657"><ele>383.0</ele><time>2026-04-19T10:16:17.141Z</time></trkpt><trkpt lat="45.713342" lon="9.5007274"><ele>383.0</ele><time>2026-04-19T10:16:26.206Z</time></trkpt><trkpt lat="45.7132927" lon="9.5007929"><ele>383.0</ele><time>2026-04-19T10:16:32.234Z</time></trkpt><trkpt lat="45.7132776" lon="9.5008856"><ele>383.0</ele><time>2026-04-19T10:16:40.189Z</time></trkpt><trkpt lat="45.7132405" lon="9.5009691"><ele>383.0</ele><time>2026-04-19T10:16:46.199Z</time></trkpt><trkpt lat="45.7132191" lon="9.5010598"><ele>383.0</ele><time>2026-04-19T10:16:52.227Z</time></trkpt><trkpt lat="45.7132275" lon="9.501155"><ele>383.0</ele><time>2026-04-19T10:16:59.259Z</time></trkpt><trkpt lat="45.7132951" lon="9.5011841"><ele>382.57142857142856</ele><time>2026-04-19T10:17:11.242Z</time></trkpt><trkpt lat="45.7133143" lon="9.5012849"><ele>382.1428571428571</ele><time>2026-04-19T10:17:21.123Z</time></trkpt><trkpt lat="45.7133206" lon="9.5013829"><ele>381.7142857142857</ele><time>2026-04-19T10:17:24.142Z</time></trkpt><trkpt lat="45.713345" lon="9.5014816"><ele>381.2857142857143</ele><time>2026-04-19T10:17:28.204Z</time></trkpt><trkpt lat="45.7133344" lon="9.5015745"><ele>380.8571428571429</ele><time>2026-04-19T10:17:34.262Z</time></trkpt><trkpt lat="45.7133021" lon="9.501659"><ele>380.42857142857144</ele><time>2026-04-19T10:17:40.225Z</time></trkpt><trkpt lat="45.7132794" lon="9.5017526"><ele>380.0</ele><time>2026-04-19T10:17:45.242Z</time></trkpt><trkpt lat="45.7133283" lon="9.5018113"><ele>380.0</ele><time>2026-04-19T10:18:05.261Z</time></trkpt><trkpt lat="45.7133991" lon="9.5018425"><ele>380.0</ele><time>2026-04-19T10:18:10.266Z</time></trkpt><trkpt lat="45.7134369" lon="9.5019165"><ele>380.0</ele><time>2026-04-19T10:18:15.206Z</time></trkpt><trkpt lat="45.7134679" lon="9.5020014"><ele>380.0</ele><time>2026-04-19T10:18:20.229Z</time></trkpt><trkpt lat="45.7134992" lon="9.5020901"><ele>380.0</ele><time>2026-04-19T10:18:24.305Z</time></trkpt><trkpt lat="45.7135482" lon="9.5021529"><ele>380.0</ele><time>2026-04-19T10:18:29.269Z</time></trkpt><trkpt lat="45.7135455" lon="9.5022545"><ele>380.0</ele><time>2026-04-19T10:18:35.297Z</time></trkpt><trkpt lat="45.7135356" lon="9.5023509"><ele>380.14285714285717</ele><time>2026-04-19T10:18:39.214Z</time></trkpt><trkpt lat="45.7135024" lon="9.5024326"><ele>380.28571428571433</ele><time>2026-04-19T10:18:43.224Z</time></trkpt><trkpt lat="45.7134688" lon="9.5025329"><ele>380.42857142857144</ele><time>2026-04-19T10:18:49.123Z</time></trkpt><trkpt lat="45.7134505" lon="9.5026305"><ele>380.57142857142856</ele><time>2026-04-19T10:18:54.282Z</time></trkpt><trkpt lat="45.7134141" lon="9.502711"><ele>380.7142857142857</ele><time>2026-04-19T10:19:01.214Z</time></trkpt><trkpt lat="45.7133868" lon="9.5027945"><ele>380.85714285714283</ele><time>2026-04-19T10:19:05.232Z</time></trkpt><trkpt lat="45.7133562" lon="9.5029003"><ele>381.0</ele><time>2026-04-19T10:19:09.282Z</time></trkpt><trkpt lat="45.7133351" lon="9.5029992"><ele>380.57142857142856</ele><time>2026-04-19T10:19:12.205Z</time></trkpt><trkpt lat="45.7133346" lon="9.5030911"><ele>380.14285714285717</ele><time>2026-04-19T10:19:17.063Z</time></trkpt><trkpt lat="45.7133249" lon="9.5031822"><ele>379.7142857142857</ele><time>2026-04-19T10:19:21.904Z</time></trkpt><trkpt lat="45.7132972" lon="9.5032856"><ele>379.2857142857143</ele><time>2026-04-19T10:19:26.902Z</time></trkpt><trkpt lat="45.7132535" lon="9.5033765"><ele>378.8571428571429</ele><time>2026-04-19T10:19:30.865Z</time></trkpt><trkpt lat="45.7132716" lon="9.5034724"><ele>378.42857142857144</ele><time>2026-04-19T10:19:35.024Z</time></trkpt><trkpt lat="45.7132886" lon="9.5035705"><ele>378.0</ele><time>2026-04-19T10:19:41.087Z</time></trkpt><trkpt lat="45.7133076" lon="9.5036648"><ele>377.0</ele><time>2026-04-19T10:19:47.922Z</time></trkpt><trkpt lat="45.7132969" lon="9.5037545"><ele>376.0</ele><time>2026-04-19T10:19:55.802Z</time></trkpt><trkpt lat="45.7132918" lon="9.5038759"><ele>375.0</ele><time>2026-04-19T10:20:00.886Z</time></trkpt><trkpt lat="45.7133223" lon="9.5039613"><ele>374.0</ele><time>2026-04-19T10:20:06.003Z</time></trkpt><trkpt lat="45.7133511" lon="9.5040428"><ele>373.0</ele><time>2026-04-19T10:20:10.021Z</time></trkpt><trkpt lat="45.7133873" lon="9.5041237"><ele>372.0</ele><time>2026-04-19T10:20:13.965Z</time></trkpt><trkpt lat="45.7134041" lon="9.5042259"><ele>371.0</ele><time>2026-04-19T10:20:17.922Z</time></trkpt><trkpt lat="45.7134393" lon="9.5043092"><ele>371.0</ele><time>2026-04-19T10:20:21.965Z</time></trkpt><trkpt lat="45.7134549" lon="9.5044156"><ele>371.0</ele><time>2026-04-19T10:20:28.185Z</time></trkpt><trkpt lat="45.7134852" lon="9.5045"><ele>371.0</ele><time>2026-04-19T10:20:34.325Z</time></trkpt><trkpt lat="45.713531" lon="9.5045669"><ele>371.0</ele><time>2026-04-19T10:20:42.146Z</time></trkpt><trkpt lat="45.7135533" lon="9.5046582"><ele>371.0</ele><time>2026-04-19T10:20:48.084Z</time></trkpt><trkpt lat="45.7135511" lon="9.5047547"><ele>371.0</ele><time>2026-04-19T10:20:53.065Z</time></trkpt><trkpt lat="45.7135657" lon="9.5048622"><ele>371.0</ele><time>2026-04-19T10:20:58.222Z</time></trkpt><trkpt lat="45.7135915" lon="9.5049627"><ele>370.2857142857143</ele><time>2026-04-19T10:21:04.306Z</time></trkpt><trkpt lat="45.7135976" lon="9.5050635"><ele>369.57142857142856</ele><time>2026-04-19T10:21:11.299Z</time></trkpt><trkpt lat="45.7135589" lon="9.5051452"><ele>368.8571428571429</ele><time>2026-04-19T10:21:18.243Z</time></trkpt><trkpt lat="45.7135123" lon="9.5052276"><ele>368.1428571428571</ele><time>2026-04-19T10:21:23.325Z</time></trkpt><trkpt lat="45.7134835" lon="9.505332"><ele>367.42857142857144</ele><time>2026-04-19T10:21:27.271Z</time></trkpt><trkpt lat="45.7134715" lon="9.5054224"><ele>366.7142857142857</ele><time>2026-04-19T10:21:32.294Z</time></trkpt><trkpt lat="45.7134695" lon="9.5055225"><ele>366.0</ele><time>2026-04-19T10:21:39.225Z</time></trkpt><trkpt lat="45.7134552" lon="9.5056165"><ele>366.0</ele><time>2026-04-19T10:21:43.243Z</time></trkpt><trkpt lat="45.7134338" lon="9.5057072"><ele>366.0</ele><time>2026-04-19T10:21:48.265Z</time></trkpt><trkpt lat="45.7133975" lon="9.5057911"><ele>366.0</ele><time>2026-04-19T10:21:52.283Z</time></trkpt><trkpt lat="45.7133835" lon="9.5058815"><ele>366.0</ele><time>2026-04-19T10:21:56.201Z</time></trkpt><trkpt lat="45.7133829" lon="9.5059736"><ele>366.0</ele><time>2026-04-19T10:22:01.324Z</time></trkpt><trkpt lat="45.7133796" lon="9.506069"><ele>366.0</ele><time>2026-04-19T10:22:06.304Z</time></trkpt><trkpt lat="45.7133731" lon="9.5061613"><ele>366.0</ele><time>2026-04-19T10:22:12.273Z</time></trkpt><trkpt lat="45.7133751" lon="9.506277"><ele>366.7142857142857</ele><time>2026-04-19T10:22:17.323Z</time></trkpt><trkpt lat="45.7133655" lon="9.506371"><ele>367.42857142857144</ele><time>2026-04-19T10:22:22.219Z</time></trkpt><trkpt lat="45.7133487" lon="9.5064787"><ele>368.1428571428571</ele><time>2026-04-19T10:22:27.241Z</time></trkpt><trkpt lat="45.7133499" lon="9.5065714"><ele>368.8571428571429</ele><time>2026-04-19T10:22:31.286Z</time></trkpt><trkpt lat="45.7133352" lon="9.5066736"><ele>369.57142857142856</ele><time>2026-04-19T10:22:37.286Z</time></trkpt><trkpt lat="45.7133512" lon="9.50677"><ele>370.2857142857143</ele><time>2026-04-19T10:22:42.309Z</time></trkpt><trkpt lat="45.7133477" lon="9.5068658"><ele>371.0</ele><time>2026-04-19T10:22:51.086Z</time></trkpt><trkpt lat="45.7133432" lon="9.5069637"><ele>371.0</ele><time>2026-04-19T10:22:56.023Z</time></trkpt><trkpt lat="45.7133381" lon="9.5070563"><ele>371.0</ele><time>2026-04-19T10:23:00.964Z</time></trkpt><trkpt lat="45.7133317" lon="9.5071591"><ele>371.0</ele><time>2026-04-19T10:23:06.001Z</time></trkpt><trkpt lat="45.7133314" lon="9.5072526"><ele>371.0</ele><time>2026-04-19T10:23:11.237Z</time></trkpt><trkpt lat="45.713348" lon="9.5073416"><ele>371.0</ele><time>2026-04-19T10:23:19.287Z</time></trkpt><trkpt lat="45.7133822" lon="9.5074254"><ele>371.0</ele><time>2026-04-19T10:23:26.204Z</time></trkpt><trkpt lat="45.7133582" lon="9.5075135"><ele>371.0</ele><time>2026-04-19T10:23:34.042Z</time></trkpt><trkpt lat="45.7133232" lon="9.5075956"><ele>369.6666666666667</ele><time>2026-04-19T10:23:40.267Z</time></trkpt><trkpt lat="45.7132887" lon="9.507681"><ele>368.33333333333337</ele><time>2026-04-19T10:23:49.085Z</time></trkpt><trkpt lat="45.7133851" lon="9.5077705"><ele>367.0</ele><time>2026-04-19T10:24:44.254Z</time></trkpt><trkpt lat="45.7133757" lon="9.507865"><ele>365.6666666666667</ele><time>2026-04-19T10:24:50.28Z</time></trkpt><trkpt lat="45.7133159" lon="9.5079292"><ele>364.3333333333333</ele><time>2026-04-19T10:24:55.303Z</time></trkpt><trkpt lat="45.7132761" lon="9.5080181"><ele>363.0</ele><time>2026-04-19T10:25:01.229Z</time></trkpt><trkpt lat="45.7132474" lon="9.5081033"><ele>361.2857142857143</ele><time>2026-04-19T10:25:26.241Z</time></trkpt><trkpt lat="45.7132347" lon="9.5081995"><ele>359.57142857142856</ele><time>2026-04-19T10:25:43.285Z</time></trkpt><trkpt lat="45.7131772" lon="9.5082559"><ele>357.8571428571429</ele><time>2026-04-19T10:25:48.282Z</time></trkpt><trkpt lat="45.713119" lon="9.5083023"><ele>356.1428571428571</ele><time>2026-04-19T10:25:55.271Z</time></trkpt><trkpt lat="45.7130596" lon="9.5083515"><ele>354.42857142857144</ele><time>2026-04-19T10:26:00.294Z</time></trkpt><trkpt lat="45.7130368" lon="9.508437"><ele>352.7142857142857</ele><time>2026-04-19T10:26:10.189Z</time></trkpt><trkpt lat="45.7130165" lon="9.5085302"><ele>351.0</ele><time>2026-04-19T10:26:21.305Z</time></trkpt><trkpt lat="45.71301" lon="9.5086352"><ele>351.00000000000006</ele><time>2026-04-19T10:26:29.184Z</time></trkpt><trkpt lat="45.7130131" lon="9.5087289"><ele>351.0</ele><time>2026-04-19T10:26:34.143Z</time></trkpt><trkpt lat="45.7130054" lon="9.5088307"><ele>351.0</ele><time>2026-04-19T10:26:42.002Z</time></trkpt><trkpt lat="45.7129567" lon="9.508932"><ele>351.0</ele><time>2026-04-19T10:27:05.189Z</time></trkpt><trkpt lat="45.7130153" lon="9.5089905"><ele>351.0</ele><time>2026-04-19T10:27:17.239Z</time></trkpt><trkpt lat="45.7130828" lon="9.5090026"><ele>351.00000000000006</ele><time>2026-04-19T10:27:23.266Z</time></trkpt><trkpt lat="45.7131433" lon="9.5090307"><ele>351.0</ele><time>2026-04-19T10:27:27.19Z</time></trkpt><trkpt lat="45.7131961" lon="9.5090921"><ele>351.5714285714286</ele><time>2026-04-19T10:27:33.211Z</time></trkpt><trkpt lat="45.7131616" lon="9.5091746"><ele>352.14285714285717</ele><time>2026-04-19T10:27:39.239Z</time></trkpt><trkpt lat="45.7130986" lon="9.5092115"><ele>352.7142857142857</ele><time>2026-04-19T10:27:48.189Z</time></trkpt><trkpt lat="45.7130443" lon="9.5092753"><ele>353.28571428571433</ele><time>2026-04-19T10:27:54.207Z</time></trkpt><trkpt lat="45.712998" lon="9.5093496"><ele>353.8571428571429</ele><time>2026-04-19T10:28:02.244Z</time></trkpt><trkpt lat="45.712925" lon="9.5093634"><ele>354.42857142857144</ele><time>2026-04-19T10:28:09.276Z</time></trkpt><trkpt lat="45.7128527" lon="9.5093919"><ele>355.0</ele><time>2026-04-19T10:28:17.213Z</time></trkpt><trkpt lat="45.7127982" lon="9.5094445"><ele>355.0</ele><time>2026-04-19T10:28:23.24Z</time></trkpt><trkpt lat="45.7128383" lon="9.5095237"><ele>355.0</ele><time>2026-04-19T10:28:32.281Z</time></trkpt><trkpt lat="45.7129015" lon="9.5095486"><ele>355.0</ele><time>2026-04-19T10:28:43.284Z</time></trkpt><trkpt lat="45.7129504" lon="9.5096093"><ele>355.0</ele><time>2026-04-19T10:28:49.26Z</time></trkpt><trkpt lat="45.7130139" lon="9.5096325"><ele>355.0</ele><time>2026-04-19T10:28:57.196Z</time></trkpt><trkpt lat="45.7130833" lon="9.5096711"><ele>355.0</ele><time>2026-04-19T10:29:04.229Z</time></trkpt><trkpt lat="45.713149" lon="9.509647"><ele>355.0</ele><time>2026-04-19T10:29:11.261Z</time></trkpt><trkpt lat="45.7132096" lon="9.5096066"><ele>357.42857142857144</ele><time>2026-04-19T10:29:20.203Z</time></trkpt><trkpt lat="45.7132784" lon="9.5095901"><ele>359.8571428571429</ele><time>2026-04-19T10:29:27.235Z</time></trkpt><trkpt lat="45.7133479" lon="9.5096104"><ele>362.28571428571433</ele><time>2026-04-19T10:29:33.263Z</time></trkpt><trkpt lat="45.7134156" lon="9.5096402"><ele>364.7142857142857</ele><time>2026-04-19T10:29:39.262Z</time></trkpt><trkpt lat="45.7134849" lon="9.5096391"><ele>367.14285714285717</ele><time>2026-04-19T10:29:47.228Z</time></trkpt><trkpt lat="45.7135461" lon="9.5096659"><ele>369.5714285714286</ele><time>2026-04-19T10:29:56.27Z</time></trkpt><trkpt lat="45.7136132" lon="9.5096971"><ele>372.0</ele><time>2026-04-19T10:30:05.211Z</time></trkpt><trkpt lat="45.7136779" lon="9.5097292"><ele>375.7142857142857</ele><time>2026-04-19T10:30:11.239Z</time></trkpt><trkpt lat="45.7137417" lon="9.5097524"><ele>379.42857142857144</ele><time>2026-04-19T10:30:17.267Z</time></trkpt><trkpt lat="45.7138069" lon="9.5097408"><ele>383.1428571428571</ele><time>2026-04-19T10:31:16.242Z</time></trkpt><trkpt lat="45.7138705" lon="9.5097319"><ele>386.8571428571429</ele><time>2026-04-19T10:31:21.267Z</time></trkpt><trkpt lat="45.7139295" lon="9.5097715"><ele>390.57142857142856</ele><time>2026-04-19T10:31:29.144Z</time></trkpt><trkpt lat="45.7139956" lon="9.5097819"><ele>394.2857142857143</ele><time>2026-04-19T10:31:36.237Z</time></trkpt><trkpt lat="45.7140605" lon="9.5097864"><ele>398.0</ele><time>2026-04-19T10:31:42.265Z</time></trkpt><trkpt lat="45.7141358" lon="9.5097471"><ele>397.99999999999994</ele><time>2026-04-19T10:31:59.245Z</time></trkpt><trkpt lat="45.7142075" lon="9.5097219"><ele>398.0</ele><time>2026-04-19T10:32:04.269Z</time></trkpt><trkpt lat="45.7142714" lon="9.5096845"><ele>398.0</ele><time>2026-04-19T10:32:09.293Z</time></trkpt><trkpt lat="45.7142694" lon="9.5095808"><ele>398.0</ele><time>2026-04-19T10:32:19.239Z</time></trkpt><trkpt lat="45.7142283" lon="9.5094989"><ele>398.0</ele><time>2026-04-19T10:32:25.268Z</time></trkpt><trkpt lat="45.7141768" lon="9.509437"><ele>397.99999999999994</ele><time>2026-04-19T10:32:31.196Z</time></trkpt><trkpt lat="45.7141429" lon="9.5093539"><ele>398.0</ele><time>2026-04-19T10:32:36.219Z</time></trkpt><trkpt lat="45.7141316" lon="9.5092616"><ele>396.2857142857143</ele><time>2026-04-19T10:32:41.243Z</time></trkpt><trkpt lat="45.7140942" lon="9.5091868"><ele>394.57142857142856</ele><time>2026-04-19T10:32:46.189Z</time></trkpt><trkpt lat="45.7140732" lon="9.5090924"><ele>392.8571428571429</ele><time>2026-04-19T10:32:52.196Z</time></trkpt><trkpt lat="45.7141257" lon="9.5090241"><ele>391.1428571428571</ele><time>2026-04-19T10:32:57.28Z</time></trkpt><trkpt lat="45.7141854" lon="9.5089714"><ele>389.42857142857144</ele><time>2026-04-19T10:33:04.252Z</time></trkpt><trkpt lat="45.7142539" lon="9.5089421"><ele>387.7142857142857</ele><time>2026-04-19T10:33:10.189Z</time></trkpt><trkpt lat="45.7143293" lon="9.5089247"><ele>386.0</ele><time>2026-04-19T10:33:16.208Z</time></trkpt><trkpt lat="45.7143966" lon="9.5089655"><ele>390.42857142857144</ele><time>2026-04-19T10:33:55.243Z</time></trkpt><trkpt lat="45.71443" lon="9.5090526"><ele>394.8571428571429</ele><time>2026-04-19T10:34:00.216Z</time></trkpt><trkpt lat="45.7144889" lon="9.5091083"><ele>399.28571428571433</ele><time>2026-04-19T10:34:07.249Z</time></trkpt><trkpt lat="45.7145394" lon="9.5091729"><ele>403.7142857142857</ele><time>2026-04-19T10:34:17.196Z</time></trkpt><trkpt lat="45.7145874" lon="9.509246"><ele>408.1428571428571</ele><time>2026-04-19T10:34:23.224Z</time></trkpt><trkpt lat="45.7146396" lon="9.5092968"><ele>412.5714285714286</ele><time>2026-04-19T10:34:30.257Z</time></trkpt><trkpt lat="45.7147003" lon="9.5093357"><ele>417.0</ele><time>2026-04-19T10:34:41.209Z</time></trkpt><trkpt lat="45.7147571" lon="9.5093818"><ele>417.0</ele><time>2026-04-19T10:35:06.227Z</time></trkpt><trkpt lat="45.7148215" lon="9.5094257"><ele>417.0</ele><time>2026-04-19T10:35:11.25Z</time></trkpt><trkpt lat="45.714882" lon="9.5094703"><ele>417.0</ele><time>2026-04-19T10:35:16.188Z</time></trkpt><trkpt lat="45.7149433" lon="9.5094402"><ele>417.0</ele><time>2026-04-19T10:35:22.202Z</time></trkpt><trkpt lat="45.7150112" lon="9.5094164"><ele>417.0</ele><time>2026-04-19T10:35:29.236Z</time></trkpt><trkpt lat="45.715048" lon="9.5093405"><ele>417.0</ele><time>2026-04-19T10:35:33.254Z</time></trkpt><trkpt lat="45.7150948" lon="9.509263"><ele>417.0</ele><time>2026-04-19T10:35:38.188Z</time></trkpt><trkpt lat="45.7151388" lon="9.5091876"><ele>417.0</ele><time>2026-04-19T10:35:43.2Z</time></trkpt><trkpt lat="45.7151756" lon="9.5091004"><ele>417.0</ele><time>2026-04-19T10:35:50.233Z</time></trkpt><trkpt lat="45.7152056" lon="9.5090184"><ele>417.0</ele><time>2026-04-19T10:35:56.261Z</time></trkpt><trkpt lat="45.7152199" lon="9.5089042"><ele>417.0</ele><time>2026-04-19T10:36:00.188Z</time></trkpt><trkpt lat="45.7152214" lon="9.5088089"><ele>417.0</ele><time>2026-04-19T10:36:04.199Z</time></trkpt><trkpt lat="45.7152435" lon="9.5087181"><ele>417.0</ele><time>2026-04-19T10:36:11.165Z</time></trkpt><trkpt lat="45.7152421" lon="9.5086225"><ele>417.0</ele><time>2026-04-19T10:36:18.261Z</time></trkpt><trkpt lat="45.7152477" lon="9.50852"><ele>416.7142857142857</ele><time>2026-04-19T10:36:26.202Z</time></trkpt><trkpt lat="45.7152292" lon="9.5084268"><ele>416.4285714285714</ele><time>2026-04-19T10:36:32.23Z</time></trkpt><trkpt lat="45.7151988" lon="9.5083277"><ele>416.1428571428571</ele><time>2026-04-19T10:36:38.258Z</time></trkpt><trkpt lat="45.7151773" lon="9.5082368"><ele>415.8571428571429</ele><time>2026-04-19T10:36:44.286Z</time></trkpt><trkpt lat="45.7151893" lon="9.5081365"><ele>415.57142857142856</ele><time>2026-04-19T10:36:50.22Z</time></trkpt><trkpt lat="45.7152116" lon="9.508038"><ele>415.2857142857143</ele><time>2026-04-19T10:36:55.237Z</time></trkpt><trkpt lat="45.7152251" lon="9.5079457"><ele>415.0</ele><time>2026-04-19T10:37:00.261Z</time></trkpt><trkpt lat="45.7152535" lon="9.507847"><ele>415.2857142857143</ele><time>2026-04-19T10:37:05.188Z</time></trkpt><trkpt lat="45.7152911" lon="9.5077571"><ele>415.57142857142856</ele><time>2026-04-19T10:37:10.207Z</time></trkpt><trkpt lat="45.7153323" lon="9.5076778"><ele>415.8571428571429</ele><time>2026-04-19T10:37:17.241Z</time></trkpt><trkpt lat="45.7153275" lon="9.5075728"><ele>416.1428571428571</ele><time>2026-04-19T10:37:26.189Z</time></trkpt><trkpt lat="45.7152799" lon="9.5074927"><ele>416.4285714285714</ele><time>2026-04-19T10:37:34.22Z</time></trkpt><trkpt lat="45.7152171" lon="9.5074629"><ele>416.7142857142857</ele><time>2026-04-19T10:37:39.243Z</time></trkpt><trkpt lat="45.7151726" lon="9.507384"><ele>417.0</ele><time>2026-04-19T10:37:43.262Z</time></trkpt><trkpt lat="45.7151446" lon="9.5072921"><ele>417.0</ele><time>2026-04-19T10:37:47.189Z</time></trkpt><trkpt lat="45.7151437" lon="9.5071957"><ele>417.0</ele><time>2026-04-19T10:37:52.204Z</time></trkpt><trkpt lat="45.7152005" lon="9.5071393"><ele>417.0</ele><time>2026-04-19T10:38:00.242Z</time></trkpt><trkpt lat="45.7152628" lon="9.5071154"><ele>417.0</ele><time>2026-04-19T10:38:06.189Z</time></trkpt><trkpt lat="45.7153131" lon="9.5070577"><ele>417.0</ele><time>2026-04-19T10:38:12.264Z</time></trkpt><trkpt lat="45.7153636" lon="9.5069986"><ele>417.0</ele><time>2026-04-19T10:38:18.226Z</time></trkpt><trkpt lat="45.7154175" lon="9.506939"><ele>417.0</ele><time>2026-04-19T10:38:24.254Z</time></trkpt><trkpt lat="45.7154706" lon="9.5068845"><ele>421.57142857142856</ele><time>2026-04-19T10:38:30.224Z</time></trkpt><trkpt lat="45.7155202" lon="9.5068131"><ele>426.1428571428571</ele><time>2026-04-19T10:38:35.206Z</time></trkpt><trkpt lat="45.7155781" lon="9.5069135"><ele>430.71428571428567</ele><time>2026-04-19T10:39:04.241Z</time></trkpt><trkpt lat="45.7155667" lon="9.5070229"><ele>435.2857142857143</ele><time>2026-04-19T10:39:09.265Z</time></trkpt><trkpt lat="45.7155805" lon="9.5071137"><ele>439.8571428571428</ele><time>2026-04-19T10:39:13.189Z</time></trkpt><trkpt lat="45.7155822" lon="9.5072118"><ele>444.4285714285714</ele><time>2026-04-19T10:39:21.221Z</time></trkpt><trkpt lat="45.7156014" lon="9.5073144"><ele>449.0</ele><time>2026-04-19T10:39:27.326Z</time></trkpt><trkpt lat="45.7156196" lon="9.5074082"><ele>449.57142857142856</ele><time>2026-04-19T10:39:32.188Z</time></trkpt><trkpt lat="45.7155851" lon="9.5074956"><ele>450.1428571428571</ele><time>2026-04-19T10:39:38.201Z</time></trkpt><trkpt lat="45.715545" lon="9.5075884"><ele>450.71428571428567</ele><time>2026-04-19T10:39:45.233Z</time></trkpt><trkpt lat="45.7155037" lon="9.5076678"><ele>451.2857142857142</ele><time>2026-04-19T10:39:50.256Z</time></trkpt><trkpt lat="45.715475" lon="9.5077523"><ele>451.85714285714283</ele><time>2026-04-19T10:39:56.222Z</time></trkpt><trkpt lat="45.7154925" lon="9.5078463"><ele>452.42857142857133</ele><time>2026-04-19T10:40:02.212Z</time></trkpt><trkpt lat="45.7155044" lon="9.5079445"><ele>452.99999999999994</ele><time>2026-04-19T10:40:07.235Z</time></trkpt><trkpt lat="45.7155" lon="9.5080359"><ele>453.42857142857133</ele><time>2026-04-19T10:40:12.258Z</time></trkpt><trkpt lat="45.7155495" lon="9.5081144"><ele>453.85714285714283</ele><time>2026-04-19T10:40:17.282Z</time></trkpt><trkpt lat="45.7155964" lon="9.508177"><ele>454.2857142857142</ele><time>2026-04-19T10:40:21.2Z</time></trkpt><trkpt lat="45.7156307" lon="9.5082703"><ele>454.71428571428567</ele><time>2026-04-19T10:40:26.204Z</time></trkpt><trkpt lat="45.7156371" lon="9.5083663"><ele>455.1428571428571</ele><time>2026-04-19T10:40:33.256Z</time></trkpt><trkpt lat="45.7156453" lon="9.5084604"><ele>455.57142857142856</ele><time>2026-04-19T10:40:39.188Z</time></trkpt><trkpt lat="45.7156455" lon="9.5085605"><ele>456.0</ele><time>2026-04-19T10:40:45.212Z</time></trkpt><trkpt lat="45.7156351" lon="9.5087297"><ele>456.57142857142856</ele><time>2026-04-19T10:41:10.742Z</time></trkpt><trkpt lat="45.7156439" lon="9.5088292"><ele>457.1428571428571</ele><time>2026-04-19T10:41:16.257Z</time></trkpt><trkpt lat="45.7156486" lon="9.5089278"><ele>457.71428571428567</ele><time>2026-04-19T10:41:22.188Z</time></trkpt><trkpt lat="45.7156452" lon="9.5090285"><ele>458.2857142857142</ele><time>2026-04-19T10:41:27.209Z</time></trkpt><trkpt lat="45.7156517" lon="9.5091462"><ele>458.85714285714283</ele><time>2026-04-19T10:41:32.332Z</time></trkpt><trkpt lat="45.7156385" lon="9.5092392"><ele>459.42857142857133</ele><time>2026-04-19T10:41:38.201Z</time></trkpt><trkpt lat="45.7156148" lon="9.5093368"><ele>459.99999999999994</ele><time>2026-04-19T10:41:45.172Z</time></trkpt><trkpt lat="45.7156121" lon="9.5094311"><ele>459.99999999999994</ele><time>2026-04-19T10:41:50.122Z</time></trkpt><trkpt lat="45.7155627" lon="9.5095088"><ele>460.0</ele><time>2026-04-19T10:41:59.203Z</time></trkpt><trkpt lat="45.7155538" lon="9.5096135"><ele>459.99999999999994</ele><time>2026-04-19T10:42:03.222Z</time></trkpt><trkpt lat="45.7155499" lon="9.5097185"><ele>459.99999999999994</ele><time>2026-04-19T10:42:07.293Z</time></trkpt><trkpt lat="45.7155473" lon="9.5098133"><ele>460.0</ele><time>2026-04-19T10:42:11.211Z</time></trkpt><trkpt lat="45.7155419" lon="9.5099033"><ele>459.99999999999994</ele><time>2026-04-19T10:42:19.249Z</time></trkpt><trkpt lat="45.7155949" lon="9.5099605"><ele>459.99999999999994</ele><time>2026-04-19T10:42:31.203Z</time></trkpt><trkpt lat="45.7155647" lon="9.5100439"><ele>460.1428571428571</ele><time>2026-04-19T10:42:43.306Z</time></trkpt><trkpt lat="45.7155337" lon="9.5101275"><ele>460.2857142857143</ele><time>2026-04-19T10:42:53.205Z</time></trkpt><trkpt lat="45.7154939" lon="9.5102136"><ele>460.42857142857144</ele><time>2026-04-19T10:43:02.162Z</time></trkpt><trkpt lat="45.7154598" lon="9.510301"><ele>460.57142857142856</ele><time>2026-04-19T10:43:07.267Z</time></trkpt><trkpt lat="45.7154116" lon="9.5103842"><ele>460.7142857142858</ele><time>2026-04-19T10:43:14.3Z</time></trkpt><trkpt lat="45.7153539" lon="9.5104452"><ele>460.8571428571429</ele><time>2026-04-19T10:43:20.227Z</time></trkpt><trkpt lat="45.7153062" lon="9.5105197"><ele>461.0</ele><time>2026-04-19T10:43:27.321Z</time></trkpt><trkpt lat="45.7152645" lon="9.5105966"><ele>460.0</ele><time>2026-04-19T10:43:31.244Z</time></trkpt><trkpt lat="45.7152172" lon="9.5106681"><ele>459.00000000000006</ele><time>2026-04-19T10:43:37.204Z</time></trkpt><trkpt lat="45.715157" lon="9.5107361"><ele>458.0</ele><time>2026-04-19T10:43:43.231Z</time></trkpt><trkpt lat="45.7151106" lon="9.5108165"><ele>457.0</ele><time>2026-04-19T10:43:50.305Z</time></trkpt><trkpt lat="45.7150639" lon="9.5108851"><ele>456.00000000000006</ele><time>2026-04-19T10:44:02.217Z</time></trkpt><trkpt lat="45.7149978" lon="9.510919"><ele>455.0</ele><time>2026-04-19T10:44:09.249Z</time></trkpt><trkpt lat="45.7149316" lon="9.51096"><ele>454.0</ele><time>2026-04-19T10:44:16.244Z</time></trkpt><trkpt lat="45.7148036" lon="9.5110445"><ele>454.0</ele><time>2026-04-19T10:44:26.226Z</time></trkpt><trkpt lat="45.7147453" lon="9.5110925"><ele>454.00000000000006</ele><time>2026-04-19T10:44:32.255Z</time></trkpt><trkpt lat="45.7146808" lon="9.5111046"><ele>454.0</ele><time>2026-04-19T10:44:35.224Z</time></trkpt><trkpt lat="45.7146164" lon="9.5111239"><ele>454.0</ele><time>2026-04-19T10:44:39.286Z</time></trkpt><trkpt lat="45.7145509" lon="9.5111369"><ele>454.00000000000006</ele><time>2026-04-19T10:44:46.217Z</time></trkpt><trkpt lat="45.7144826" lon="9.5111572"><ele>454.0</ele><time>2026-04-19T10:44:52.282Z</time></trkpt><trkpt lat="45.7144272" lon="9.5112021"><ele>454.0</ele><time>2026-04-19T10:44:58.272Z</time></trkpt><trkpt lat="45.714394" lon="9.511297"><ele>453.14285714285717</ele><time>2026-04-19T10:45:05.246Z</time></trkpt><trkpt lat="45.7143655" lon="9.5113839"><ele>452.28571428571433</ele><time>2026-04-19T10:45:13.239Z</time></trkpt><trkpt lat="45.7143155" lon="9.5114562"><ele>451.42857142857144</ele><time>2026-04-19T10:45:21.223Z</time></trkpt><trkpt lat="45.7142662" lon="9.5115135"><ele>450.57142857142856</ele><time>2026-04-19T10:45:25.295Z</time></trkpt><trkpt lat="45.714222" lon="9.5115876"><ele>449.7142857142857</ele><time>2026-04-19T10:45:29.211Z</time></trkpt><trkpt lat="45.7141909" lon="9.5116863"><ele>448.8571428571429</ele><time>2026-04-19T10:45:34.234Z</time></trkpt><trkpt lat="45.7141583" lon="9.5117671"><ele>448.0</ele><time>2026-04-19T10:45:39.305Z</time></trkpt><trkpt lat="45.7141388" lon="9.511856"><ele>448.0</ele><time>2026-04-19T10:45:46.289Z</time></trkpt><trkpt lat="45.7141205" lon="9.5119446"><ele>448.0</ele><time>2026-04-19T10:45:52.316Z</time></trkpt><trkpt lat="45.7141194" lon="9.5120436"><ele>448.0</ele><time>2026-04-19T10:45:57.238Z</time></trkpt><trkpt lat="45.7141231" lon="9.5121367"><ele>448.0</ele><time>2026-04-19T10:46:01.256Z</time></trkpt><trkpt lat="45.7141136" lon="9.5122284"><ele>448.0</ele><time>2026-04-19T10:46:06.245Z</time></trkpt><trkpt lat="45.7140878" lon="9.5123187"><ele>448.0</ele><time>2026-04-19T10:46:11.302Z</time></trkpt><trkpt lat="45.7140597" lon="9.5124062"><ele>448.0</ele><time>2026-04-19T10:46:17.228Z</time></trkpt><trkpt lat="45.7140308" lon="9.5124901"><ele>448.1428571428571</ele><time>2026-04-19T10:46:22.251Z</time></trkpt><trkpt lat="45.7140118" lon="9.5125817"><ele>448.2857142857143</ele><time>2026-04-19T10:46:27.273Z</time></trkpt><trkpt lat="45.7139845" lon="9.5126767"><ele>448.42857142857144</ele><time>2026-04-19T10:46:32.296Z</time></trkpt><trkpt lat="45.7139745" lon="9.5127763"><ele>448.57142857142856</ele><time>2026-04-19T10:46:37.187Z</time></trkpt><trkpt lat="45.7139537" lon="9.5128625"><ele>448.71428571428567</ele><time>2026-04-19T10:46:46.085Z</time></trkpt><trkpt lat="45.7139395" lon="9.51296"><ele>448.85714285714283</ele><time>2026-04-19T10:46:51.281Z</time></trkpt><trkpt lat="45.713914" lon="9.5130533"><ele>449.0</ele><time>2026-04-19T10:46:55.299Z</time></trkpt><trkpt lat="45.7138887" lon="9.5131447"><ele>447.4285714285714</ele><time>2026-04-19T10:46:59.217Z</time></trkpt><trkpt lat="45.7138667" lon="9.5132347"><ele>445.8571428571428</ele><time>2026-04-19T10:47:05.244Z</time></trkpt><trkpt lat="45.7138473" lon="9.513323"><ele>444.2857142857143</ele><time>2026-04-19T10:47:13.28Z</time></trkpt><trkpt lat="45.7139093" lon="9.5133803"><ele>442.71428571428567</ele><time>2026-04-19T10:47:47.224Z</time></trkpt><trkpt lat="45.7139786" lon="9.5133731"><ele>441.1428571428571</ele><time>2026-04-19T10:47:53.322Z</time></trkpt><trkpt lat="45.7140524" lon="9.5133405"><ele>439.57142857142856</ele><time>2026-04-19T10:47:59.287Z</time></trkpt><trkpt lat="45.7141226" lon="9.5133187"><ele>438.0</ele><time>2026-04-19T10:48:04.309Z</time></trkpt><trkpt lat="45.7141876" lon="9.513334"><ele>438.0</ele><time>2026-04-19T10:48:09.231Z</time></trkpt><trkpt lat="45.7142579" lon="9.5134129"><ele>438.0</ele><time>2026-04-19T10:48:20.281Z</time></trkpt><trkpt lat="45.7143229" lon="9.5134464"><ele>438.0</ele><time>2026-04-19T10:48:25.304Z</time></trkpt><trkpt lat="45.7143971" lon="9.5134535"><ele>438.0</ele><time>2026-04-19T10:48:32.042Z</time></trkpt><trkpt lat="45.7144703" lon="9.5134296"><ele>438.0</ele><time>2026-04-19T10:48:38.262Z</time></trkpt><trkpt lat="45.7145293" lon="9.5133949"><ele>438.0</ele><time>2026-04-19T10:48:44.188Z</time></trkpt><trkpt lat="45.7145924" lon="9.5134004"><ele>438.0</ele><time>2026-04-19T10:48:51.186Z</time></trkpt><trkpt lat="45.7146658" lon="9.5133977"><ele>439.42857142857144</ele><time>2026-04-19T10:48:58.251Z</time></trkpt><trkpt lat="45.7147286" lon="9.5134111"><ele>440.85714285714283</ele><time>2026-04-19T10:49:03.274Z</time></trkpt><trkpt lat="45.7147985" lon="9.5134063"><ele>442.2857142857143</ele><time>2026-04-19T10:49:09.243Z</time></trkpt><trkpt lat="45.7148622" lon="9.5134266"><ele>443.7142857142857</ele><time>2026-04-19T10:49:14.265Z</time></trkpt><trkpt lat="45.7149257" lon="9.5134569"><ele>445.1428571428571</ele><time>2026-04-19T10:49:19.246Z</time></trkpt><trkpt lat="45.714984" lon="9.5134971"><ele>446.57142857142856</ele><time>2026-04-19T10:49:23.264Z</time></trkpt><trkpt lat="45.7150469" lon="9.5135596"><ele>448.0</ele><time>2026-04-19T10:49:28.286Z</time></trkpt><trkpt lat="45.7151067" lon="9.5136153"><ele>448.0</ele><time>2026-04-19T10:49:32.304Z</time></trkpt><trkpt lat="45.7151701" lon="9.5136654"><ele>448.0</ele><time>2026-04-19T10:49:38.303Z</time></trkpt><trkpt lat="45.7152367" lon="9.5137539"><ele>448.0</ele><time>2026-04-19T10:49:42.249Z</time></trkpt><trkpt lat="45.7152848" lon="9.5138195"><ele>448.0</ele><time>2026-04-19T10:49:45.262Z</time></trkpt><trkpt lat="45.7153431" lon="9.5138622"><ele>448.0</ele><time>2026-04-19T10:49:53.285Z</time></trkpt><trkpt lat="45.7153789" lon="9.5139433"><ele>448.0</ele><time>2026-04-19T10:50:00.23Z</time></trkpt><trkpt lat="45.7154317" lon="9.5139935"><ele>448.0</ele><time>2026-04-19T10:50:05.252Z</time></trkpt><trkpt lat="45.7154789" lon="9.5140588"><ele>448.0</ele><time>2026-04-19T10:50:10.275Z</time></trkpt><trkpt lat="45.7155409" lon="9.5141324"><ele>448.0</ele><time>2026-04-19T10:50:15.297Z</time></trkpt><trkpt lat="45.7155958" lon="9.5141784"><ele>448.0</ele><time>2026-04-19T10:50:19.216Z</time></trkpt><trkpt lat="45.7156528" lon="9.5142498"><ele>448.0</ele><time>2026-04-19T10:50:24.237Z</time></trkpt><trkpt lat="45.7156888" lon="9.5143263"><ele>448.0</ele><time>2026-04-19T10:50:28.142Z</time></trkpt><trkpt lat="45.715718" lon="9.5144169"><ele>448.0</ele><time>2026-04-19T10:50:32.306Z</time></trkpt><trkpt lat="45.7157637" lon="9.5144987"><ele>448.0</ele><time>2026-04-19T10:50:37.326Z</time></trkpt><trkpt lat="45.7158167" lon="9.5145608"><ele>446.57142857142856</ele><time>2026-04-19T10:50:44.227Z</time></trkpt><trkpt lat="45.7158589" lon="9.5146371"><ele>445.1428571428571</ele><time>2026-04-19T10:50:52.264Z</time></trkpt><trkpt lat="45.7159064" lon="9.5147093"><ele>443.7142857142857</ele><time>2026-04-19T10:50:58.223Z</time></trkpt><trkpt lat="45.7159517" lon="9.5147741"><ele>442.2857142857143</ele><time>2026-04-19T10:51:03.284Z</time></trkpt><trkpt lat="45.7160028" lon="9.5148393"><ele>440.85714285714283</ele><time>2026-04-19T10:51:09.239Z</time></trkpt><trkpt lat="45.7160466" lon="9.5149227"><ele>439.42857142857144</ele><time>2026-04-19T10:51:15.266Z</time></trkpt><trkpt lat="45.716095" lon="9.5149976"><ele>438.0</ele><time>2026-04-19T10:51:20.288Z</time></trkpt><trkpt lat="45.7161382" lon="9.5150661"><ele>440.0</ele><time>2026-04-19T10:51:24.306Z</time></trkpt><trkpt lat="45.7161885" lon="9.5151378"><ele>442.0</ele><time>2026-04-19T10:51:29.228Z</time></trkpt><trkpt lat="45.7162483" lon="9.5151897"><ele>444.0</ele><time>2026-04-19T10:51:34.251Z</time></trkpt><trkpt lat="45.7163077" lon="9.5152244"><ele>446.0</ele><time>2026-04-19T10:51:41.179Z</time></trkpt><trkpt lat="45.7163655" lon="9.5152728"><ele>448.0</ele><time>2026-04-19T10:51:47.209Z</time></trkpt><trkpt lat="45.7164199" lon="9.5153315"><ele>450.0</ele><time>2026-04-19T10:51:53.202Z</time></trkpt><trkpt lat="45.7164549" lon="9.5154143"><ele>452.0</ele><time>2026-04-19T10:52:02.083Z</time></trkpt><trkpt lat="45.7164898" lon="9.5155035"><ele>452.0</ele><time>2026-04-19T10:52:08.286Z</time></trkpt><trkpt lat="45.7165311" lon="9.5154335"><ele>452.0</ele><time>2026-04-19T10:52:37.233Z</time></trkpt><trkpt lat="45.7165895" lon="9.5153945"><ele>452.0</ele><time>2026-04-19T10:52:41.251Z</time></trkpt><trkpt lat="45.7166635" lon="9.5154033"><ele>452.0</ele><time>2026-04-19T10:52:50.292Z</time></trkpt><trkpt lat="45.7167129" lon="9.5154704"><ele>452.0</ele><time>2026-04-19T10:52:55.314Z</time></trkpt><trkpt lat="45.7167402" lon="9.5155535"><ele>452.0</ele><time>2026-04-19T10:52:59.232Z</time></trkpt><trkpt lat="45.7167518" lon="9.5156664"><ele>452.0</ele><time>2026-04-19T10:53:04.242Z</time></trkpt><trkpt lat="45.7167552" lon="9.5157658"><ele>452.0</ele><time>2026-04-19T10:53:08.272Z</time></trkpt><trkpt lat="45.7167777" lon="9.515868"><ele>452.0</ele><time>2026-04-19T10:53:18.217Z</time></trkpt><trkpt lat="45.7167938" lon="9.5159624"><ele>452.0</ele><time>2026-04-19T10:53:22.235Z</time></trkpt><trkpt lat="45.7167997" lon="9.51606"><ele>452.0</ele><time>2026-04-19T10:53:25.146Z</time></trkpt><trkpt lat="45.7168102" lon="9.5161578"><ele>452.0</ele><time>2026-04-19T10:53:28.244Z</time></trkpt><trkpt lat="45.7168411" lon="9.5162506"><ele>452.0</ele><time>2026-04-19T10:53:34.225Z</time></trkpt><trkpt lat="45.7168963" lon="9.5163063"><ele>452.0</ele><time>2026-04-19T10:53:39.143Z</time></trkpt><trkpt lat="45.7169529" lon="9.5163542"><ele>454.57142857142856</ele><time>2026-04-19T10:53:44.233Z</time></trkpt><trkpt lat="45.7169482" lon="9.5164564"><ele>457.1428571428571</ele><time>2026-04-19T10:53:48.251Z</time></trkpt><trkpt lat="45.7169621" lon="9.5165525"><ele>459.71428571428567</ele><time>2026-04-19T10:53:56.224Z</time></trkpt><trkpt lat="45.7169763" lon="9.5166474"><ele>462.2857142857143</ele><time>2026-04-19T10:54:03.218Z</time></trkpt><trkpt lat="45.7169761" lon="9.5167496"><ele>464.8571428571428</ele><time>2026-04-19T10:54:07.236Z</time></trkpt><trkpt lat="45.7169603" lon="9.5168399"><ele>467.4285714285714</ele><time>2026-04-19T10:54:11.254Z</time></trkpt><trkpt lat="45.7169349" lon="9.516928"><ele>470.0</ele><time>2026-04-19T10:54:15.272Z</time></trkpt><trkpt lat="45.7169107" lon="9.5170297"><ele>470.2857142857143</ele><time>2026-04-19T10:54:20.295Z</time></trkpt><trkpt lat="45.7168916" lon="9.5171171"><ele>470.57142857142856</ele><time>2026-04-19T10:54:25.217Z</time></trkpt><trkpt lat="45.7169021" lon="9.5172141"><ele>470.85714285714283</ele><time>2026-04-19T10:54:30.101Z</time></trkpt><trkpt lat="45.7169152" lon="9.517321"><ele>471.1428571428571</ele><time>2026-04-19T10:54:35.183Z</time></trkpt><trkpt lat="45.7169089" lon="9.5174311"><ele>471.42857142857144</ele><time>2026-04-19T10:54:40.284Z</time></trkpt><trkpt lat="45.7169384" lon="9.5175208"><ele>471.71428571428567</ele><time>2026-04-19T10:54:48.22Z</time></trkpt><trkpt lat="45.716917" lon="9.5176091"><ele>472.0</ele><time>2026-04-19T10:54:54.247Z</time></trkpt><trkpt lat="45.7168954" lon="9.5177157"><ele>470.85714285714283</ele><time>2026-04-19T10:54:59.121Z</time></trkpt><trkpt lat="45.7168821" lon="9.5178122"><ele>469.7142857142858</ele><time>2026-04-19T10:55:03.305Z</time></trkpt><trkpt lat="45.7169007" lon="9.5179053"><ele>468.5714285714286</ele><time>2026-04-19T10:55:09.221Z</time></trkpt><trkpt lat="45.716892" lon="9.5179968"><ele>467.42857142857144</ele><time>2026-04-19T10:55:16.245Z</time></trkpt><trkpt lat="45.7168686" lon="9.5180921"><ele>466.28571428571433</ele><time>2026-04-19T10:55:21.268Z</time></trkpt><trkpt lat="45.716844" lon="9.5181863"><ele>465.1428571428572</ele><time>2026-04-19T10:55:27.222Z</time></trkpt><trkpt lat="45.7168365" lon="9.518298"><ele>464.00000000000006</ele><time>2026-04-19T10:55:34.226Z</time></trkpt><trkpt lat="45.7168145" lon="9.518384"><ele>464.00000000000006</ele><time>2026-04-19T10:55:38.281Z</time></trkpt><trkpt lat="45.7167535" lon="9.5184465"><ele>464.0</ele><time>2026-04-19T10:55:43.267Z</time></trkpt><trkpt lat="45.7167044" lon="9.5185144"><ele>464.00000000000006</ele><time>2026-04-19T10:55:48.289Z</time></trkpt><trkpt lat="45.7166486" lon="9.5185572"><ele>464.00000000000006</ele><time>2026-04-19T10:55:53.203Z</time></trkpt><trkpt lat="45.7165837" lon="9.5185996"><ele>464.0</ele><time>2026-04-19T10:55:58.234Z</time></trkpt><trkpt lat="45.7165154" lon="9.5186575"><ele>464.00000000000006</ele><time>2026-04-19T10:56:04.261Z</time></trkpt><trkpt lat="45.7164571" lon="9.5187044"><ele>464.00000000000006</ele><time>2026-04-19T10:56:11.292Z</time></trkpt><trkpt lat="45.7164019" lon="9.5187725"><ele>464.1428571428572</ele><time>2026-04-19T10:56:18.325Z</time></trkpt><trkpt lat="45.716342" lon="9.5188189"><ele>464.28571428571433</ele><time>2026-04-19T10:56:24.251Z</time></trkpt><trkpt lat="45.7162802" lon="9.5188362"><ele>464.42857142857144</ele><time>2026-04-19T10:56:28.269Z</time></trkpt><trkpt lat="45.7161862" lon="9.5188469"><ele>464.5714285714286</ele><time>2026-04-19T10:56:33.291Z</time></trkpt><trkpt lat="45.7161295" lon="9.5187926"><ele>464.7142857142858</ele><time>2026-04-19T10:56:38.261Z</time></trkpt><trkpt lat="45.7160715" lon="9.5188282"><ele>464.85714285714283</ele><time>2026-04-19T10:56:42.285Z</time></trkpt><trkpt lat="45.7160135" lon="9.5188806"><ele>465.0</ele><time>2026-04-19T10:56:46.249Z</time></trkpt><trkpt lat="45.7159392" lon="9.5189106"><ele>465.0</ele><time>2026-04-19T10:56:50.267Z</time></trkpt><trkpt lat="45.7158983" lon="9.5189889"><ele>465.0</ele><time>2026-04-19T10:56:55.29Z</time></trkpt><trkpt lat="45.7158777" lon="9.5190903"><ele>465.0</ele><time>2026-04-19T10:57:02.221Z</time></trkpt><trkpt lat="45.7158874" lon="9.5191865"><ele>465.0</ele><time>2026-04-19T10:57:07.261Z</time></trkpt><trkpt lat="45.7158623" lon="9.519284"><ele>465.0</ele><time>2026-04-19T10:57:14.122Z</time></trkpt><trkpt lat="45.7158475" lon="9.5193816"><ele>465.0</ele><time>2026-04-19T10:57:20.963Z</time></trkpt><trkpt lat="45.7158232" lon="9.5194735"><ele>465.0</ele><time>2026-04-19T10:57:25.824Z</time></trkpt><trkpt lat="45.7157496" lon="9.519525"><ele>465.0</ele><time>2026-04-19T10:57:30.641Z</time></trkpt><trkpt lat="45.7156843" lon="9.5195425"><ele>465.0</ele><time>2026-04-19T10:57:34.584Z</time></trkpt><trkpt lat="45.7156217" lon="9.5195708"><ele>465.0</ele><time>2026-04-19T10:57:40.486Z</time></trkpt><trkpt lat="45.7155503" lon="9.5195916"><ele>465.0</ele><time>2026-04-19T10:57:44.464Z</time></trkpt><trkpt lat="45.7154693" lon="9.5196071"><ele>465.0</ele><time>2026-04-19T10:57:50.486Z</time></trkpt><trkpt lat="45.7154079" lon="9.5196525"><ele>465.0</ele><time>2026-04-19T10:57:55.505Z</time></trkpt><trkpt lat="45.7153462" lon="9.5196939"><ele>465.0</ele><time>2026-04-19T10:58:03.464Z</time></trkpt><trkpt lat="45.7152789" lon="9.5197321"><ele>465.42857142857144</ele><time>2026-04-19T10:58:09.405Z</time></trkpt><trkpt lat="45.715217" lon="9.5197615"><ele>465.8571428571429</ele><time>2026-04-19T10:58:14.402Z</time></trkpt><trkpt lat="45.7151536" lon="9.5198029"><ele>466.28571428571433</ele><time>2026-04-19T10:58:24.289Z</time></trkpt><trkpt lat="45.7150869" lon="9.5198357"><ele>466.7142857142857</ele><time>2026-04-19T10:58:28.308Z</time></trkpt><trkpt lat="45.7150213" lon="9.5198805"><ele>467.1428571428572</ele><time>2026-04-19T10:58:32.225Z</time></trkpt><trkpt lat="45.7149629" lon="9.5199236"><ele>467.5714285714286</ele><time>2026-04-19T10:58:44.202Z</time></trkpt><trkpt lat="45.7149061" lon="9.5199631"><ele>468.0</ele><time>2026-04-19T10:58:50.306Z</time></trkpt><trkpt lat="45.7148798" lon="9.5200483"><ele>468.0</ele><time>2026-04-19T10:58:56.232Z</time></trkpt><trkpt lat="45.7148728" lon="9.5201443"><ele>468.00000000000006</ele><time>2026-04-19T10:59:01.255Z</time></trkpt><trkpt lat="45.7148653" lon="9.5202547"><ele>468.0</ele><time>2026-04-19T10:59:06.277Z</time></trkpt><trkpt lat="45.7148703" lon="9.5203581"><ele>468.0</ele><time>2026-04-19T10:59:11.301Z</time></trkpt><trkpt lat="45.7148858" lon="9.5204613"><ele>468.00000000000006</ele><time>2026-04-19T10:59:16.203Z</time></trkpt><trkpt lat="45.7149178" lon="9.5205582"><ele>468.0</ele><time>2026-04-19T10:59:21.302Z</time></trkpt><trkpt lat="45.7149308" lon="9.5206546"><ele>468.0</ele><time>2026-04-19T10:59:27.271Z</time></trkpt><trkpt lat="45.7149006" lon="9.5207404"><ele>468.28571428571433</ele><time>2026-04-19T10:59:33.298Z</time></trkpt><trkpt lat="45.7149455" lon="9.5208105"><ele>468.5714285714286</ele><time>2026-04-19T10:59:38.22Z</time></trkpt><trkpt lat="45.7149978" lon="9.5208744"><ele>468.8571428571429</ele><time>2026-04-19T10:59:42.226Z</time></trkpt><trkpt lat="45.7150627" lon="9.5209296"><ele>469.1428571428571</ele><time>2026-04-19T10:59:47.323Z</time></trkpt><trkpt lat="45.7151148" lon="9.5210002"><ele>469.4285714285714</ele><time>2026-04-19T10:59:52.284Z</time></trkpt><trkpt lat="45.7151393" lon="9.5210929"><ele>469.71428571428567</ele><time>2026-04-19T10:59:57.307Z</time></trkpt><trkpt lat="45.7151287" lon="9.5211891"><ele>470.0</ele><time>2026-04-19T11:00:01.223Z</time></trkpt><trkpt lat="45.7151466" lon="9.5212936"><ele>468.6</ele><time>2026-04-19T11:00:05.183Z</time></trkpt><trkpt lat="45.715183" lon="9.5213724"><ele>467.2</ele><time>2026-04-19T11:00:09.26Z</time></trkpt><trkpt lat="45.7151698" lon="9.5214707"><ele>465.79999999999995</ele><time>2026-04-19T11:00:20.208Z</time></trkpt><trkpt lat="45.715111" lon="9.5215498"><ele>464.4</ele><time>2026-04-19T11:00:24.226Z</time></trkpt><trkpt lat="45.7149427" lon="9.5215924"><ele>463.0</ele><time>2026-04-19T11:00:28.244Z</time></trkpt><trkpt lat="45.714871" lon="9.5216045"><ele>463.0</ele><time>2026-04-19T11:00:29.201Z</time></trkpt><trkpt lat="45.7148329" lon="9.5216857"><ele>462.99999999999994</ele><time>2026-04-19T11:00:32.285Z</time></trkpt><trkpt lat="45.7148868" lon="9.5217715"><ele>463.0</ele><time>2026-04-19T11:00:36.242Z</time></trkpt><trkpt lat="45.7149538" lon="9.5218199"><ele>463.0</ele><time>2026-04-19T11:00:39.294Z</time></trkpt><trkpt lat="45.7150158" lon="9.5218499"><ele>462.99999999999994</ele><time>2026-04-19T11:00:42.307Z</time></trkpt><trkpt lat="45.7150827" lon="9.5218563"><ele>463.0</ele><time>2026-04-19T11:00:47.2Z</time></trkpt><trkpt lat="45.7151169" lon="9.5219322"><ele>463.0</ele><time>2026-04-19T11:00:53.256Z</time></trkpt><trkpt lat="45.7151109" lon="9.5220272"><ele>464.00000000000006</ele><time>2026-04-19T11:00:57.274Z</time></trkpt><trkpt lat="45.7151078" lon="9.5221465"><ele>465.0</ele><time>2026-04-19T11:01:03.223Z</time></trkpt><trkpt lat="45.7149994" lon="9.5221852"><ele>466.0</ele><time>2026-04-19T11:01:04.242Z</time></trkpt><trkpt lat="45.7149506" lon="9.5222538"><ele>467.0</ele><time>2026-04-19T11:01:06.221Z</time></trkpt><trkpt lat="45.7149547" lon="9.522346"><ele>468.00000000000006</ele><time>2026-04-19T11:01:09.325Z</time></trkpt><trkpt lat="45.7149276" lon="9.5224286"><ele>469.0</ele><time>2026-04-19T11:01:13.246Z</time></trkpt><trkpt lat="45.7149404" lon="9.5225194"><ele>469.00000000000006</ele><time>2026-04-19T11:01:18.269Z</time></trkpt><trkpt lat="45.7149347" lon="9.5226221"><ele>469.0</ele><time>2026-04-19T11:01:24.024Z</time></trkpt><trkpt lat="45.7149396" lon="9.5227129"><ele>469.0</ele><time>2026-04-19T11:01:29.218Z</time></trkpt><trkpt lat="45.7149383" lon="9.5228171"><ele>469.0</ele><time>2026-04-19T11:01:34.243Z</time></trkpt><trkpt lat="45.7149688" lon="9.5229072"><ele>469.00000000000006</ele><time>2026-04-19T11:01:40.267Z</time></trkpt><trkpt lat="45.7150211" lon="9.5230504"><ele>469.0</ele><time>2026-04-19T11:02:09.298Z</time></trkpt><trkpt lat="45.7150277" lon="9.5231467"><ele>469.57142857142856</ele><time>2026-04-19T11:02:13.182Z</time></trkpt><trkpt lat="45.7150137" lon="9.5232497"><ele>470.1428571428571</ele><time>2026-04-19T11:02:18.238Z</time></trkpt><trkpt lat="45.7150016" lon="9.523345"><ele>470.7142857142857</ele><time>2026-04-19T11:02:23.261Z</time></trkpt><trkpt lat="45.7149742" lon="9.5234301"><ele>471.2857142857143</ele><time>2026-04-19T11:02:29.287Z</time></trkpt><trkpt lat="45.7149444" lon="9.5235235"><ele>471.85714285714283</ele><time>2026-04-19T11:02:34.209Z</time></trkpt><trkpt lat="45.7149126" lon="9.523621"><ele>472.42857142857144</ele><time>2026-04-19T11:02:40.236Z</time></trkpt><trkpt lat="45.7149065" lon="9.5237108"><ele>473.0</ele><time>2026-04-19T11:02:45.259Z</time></trkpt><trkpt lat="45.7148729" lon="9.523792"><ele>474.28571428571433</ele><time>2026-04-19T11:02:51.286Z</time></trkpt><trkpt lat="45.7148212" lon="9.523846"><ele>475.57142857142856</ele><time>2026-04-19T11:02:58.217Z</time></trkpt><trkpt lat="45.714771" lon="9.5239164"><ele>476.8571428571429</ele><time>2026-04-19T11:03:03.239Z</time></trkpt><trkpt lat="45.7147263" lon="9.5239984"><ele>478.14285714285717</ele><time>2026-04-19T11:03:07.257Z</time></trkpt><trkpt lat="45.7146791" lon="9.5240812"><ele>479.42857142857144</ele><time>2026-04-19T11:03:13.282Z</time></trkpt><trkpt lat="45.7146303" lon="9.5241553"><ele>480.7142857142857</ele><time>2026-04-19T11:03:19.211Z</time></trkpt><trkpt lat="45.7145974" lon="9.5242368"><ele>482.0</ele><time>2026-04-19T11:03:23.229Z</time></trkpt><trkpt lat="45.7145941" lon="9.5243358"><ele>482.0</ele><time>2026-04-19T11:03:28.253Z</time></trkpt><trkpt lat="45.7145745" lon="9.5244227"><ele>482.00000000000006</ele><time>2026-04-19T11:03:33.146Z</time></trkpt><trkpt lat="45.7145509" lon="9.5245118"><ele>482.0</ele><time>2026-04-19T11:03:39.301Z</time></trkpt><trkpt lat="45.7145406" lon="9.524609"><ele>482.0</ele><time>2026-04-19T11:03:44.223Z</time></trkpt><trkpt lat="45.7145413" lon="9.5247148"><ele>482.00000000000006</ele><time>2026-04-19T11:03:48.241Z</time></trkpt><trkpt lat="45.7145873" lon="9.5246531"><ele>482.0</ele><time>2026-04-19T11:05:09.204Z</time></trkpt><trkpt lat="45.7145419" lon="9.5247229"><ele>482.0</ele><time>2026-04-19T11:06:07.264Z</time></trkpt><trkpt lat="45.7145385" lon="9.5248165"><ele>481.7142857142857</ele><time>2026-04-19T11:06:20.223Z</time></trkpt><trkpt lat="45.7145411" lon="9.5249182"><ele>481.42857142857144</ele><time>2026-04-19T11:06:24.24Z</time></trkpt><trkpt lat="45.7145868" lon="9.5249905"><ele>481.14285714285717</ele><time>2026-04-19T11:06:30.265Z</time></trkpt><trkpt lat="45.7146508" lon="9.5250378"><ele>480.8571428571429</ele><time>2026-04-19T11:06:36.295Z</time></trkpt><trkpt lat="45.71471" lon="9.5250878"><ele>480.57142857142856</ele><time>2026-04-19T11:06:41.217Z</time></trkpt><trkpt lat="45.7147775" lon="9.5251143"><ele>480.28571428571433</ele><time>2026-04-19T11:06:48.186Z</time></trkpt><trkpt lat="45.7148383" lon="9.5251603"><ele>480.0</ele><time>2026-04-19T11:06:53.202Z</time></trkpt><trkpt lat="45.7148693" lon="9.5252462"><ele>480.0</ele><time>2026-04-19T11:07:00.303Z</time></trkpt><trkpt lat="45.7148848" lon="9.525334"><ele>480.0</ele><time>2026-04-19T11:07:05.225Z</time></trkpt><trkpt lat="45.7149197" lon="9.5254153"><ele>480.0</ele><time>2026-04-19T11:07:09.243Z</time></trkpt><trkpt lat="45.7149632" lon="9.5255061"><ele>480.0</ele><time>2026-04-19T11:07:13.243Z</time></trkpt><trkpt lat="45.7150095" lon="9.5255876"><ele>480.0</ele><time>2026-04-19T11:07:18.28Z</time></trkpt><trkpt lat="45.7150124" lon="9.5256888"><ele>480.0</ele><time>2026-04-19T11:07:23.206Z</time></trkpt><trkpt lat="45.7150638" lon="9.5257516"><ele>480.0</ele><time>2026-04-19T11:07:28.228Z</time></trkpt><trkpt lat="45.7151339" lon="9.5257501"><ele>478.57142857142856</ele><time>2026-04-19T11:07:32.246Z</time></trkpt><trkpt lat="45.7151914" lon="9.5258039"><ele>477.1428571428571</ele><time>2026-04-19T11:07:39.279Z</time></trkpt><trkpt lat="45.7152609" lon="9.525841"><ele>475.71428571428567</ele><time>2026-04-19T11:07:46.323Z</time></trkpt><trkpt lat="45.7153342" lon="9.5258519"><ele>474.2857142857143</ele><time>2026-04-19T11:07:52.236Z</time></trkpt><trkpt lat="45.7154012" lon="9.5258534"><ele>472.8571428571428</ele><time>2026-04-19T11:07:59.225Z</time></trkpt><trkpt lat="45.7154044" lon="9.5259437"><ele>471.4285714285714</ele><time>2026-04-19T11:08:10.065Z</time></trkpt><trkpt lat="45.7153413" lon="9.5260069"><ele>470.0</ele><time>2026-04-19T11:08:18.261Z</time></trkpt><trkpt lat="45.7153304" lon="9.5261061"><ele>470.0</ele><time>2026-04-19T11:08:23.277Z</time></trkpt><trkpt lat="45.7152998" lon="9.5261938"><ele>469.99999999999994</ele><time>2026-04-19T11:08:32.216Z</time></trkpt><trkpt lat="45.7152744" lon="9.5262872"><ele>470.0</ele><time>2026-04-19T11:08:38.226Z</time></trkpt><trkpt lat="45.7152369" lon="9.5263652"><ele>470.0</ele><time>2026-04-19T11:08:43.266Z</time></trkpt><trkpt lat="45.7151958" lon="9.5264358"><ele>469.99999999999994</ele><time>2026-04-19T11:08:48.289Z</time></trkpt><trkpt lat="45.7151626" lon="9.5265222"><ele>470.0</ele><time>2026-04-19T11:08:53.311Z</time></trkpt><trkpt lat="45.7151972" lon="9.5266178"><ele>470.0</ele><time>2026-04-19T11:09:09.984Z</time></trkpt><trkpt lat="45.7152426" lon="9.5266885"><ele>467.0</ele><time>2026-04-19T11:09:13.881Z</time></trkpt><trkpt lat="45.7152961" lon="9.5267403"><ele>463.99999999999994</ele><time>2026-04-19T11:09:17.824Z</time></trkpt><trkpt lat="45.715335" lon="9.5268255"><ele>461.0</ele><time>2026-04-19T11:09:22.741Z</time></trkpt><trkpt lat="45.7153874" lon="9.5268882"><ele>458.0</ele><time>2026-04-19T11:09:29.582Z</time></trkpt><trkpt lat="45.7154573" lon="9.5268959"><ele>454.99999999999994</ele><time>2026-04-19T11:09:37.483Z</time></trkpt><trkpt lat="45.7155297" lon="9.5269072"><ele>452.0</ele><time>2026-04-19T11:09:43.585Z</time></trkpt><trkpt lat="45.7155994" lon="9.526903"><ele>449.0</ele><time>2026-04-19T11:09:49.522Z</time></trkpt><trkpt lat="45.7156672" lon="9.5269286"><ele>449.0</ele><time>2026-04-19T11:09:54.525Z</time></trkpt><trkpt lat="45.7157351" lon="9.5269488"><ele>448.99999999999994</ele><time>2026-04-19T11:09:58.462Z</time></trkpt><trkpt lat="45.7158035" lon="9.5269566"><ele>449.0</ele><time>2026-04-19T11:10:03.364Z</time></trkpt><trkpt lat="45.7158425" lon="9.5270462"><ele>449.0</ele><time>2026-04-19T11:10:10.306Z</time></trkpt><trkpt lat="45.7159013" lon="9.5271042"><ele>448.99999999999994</ele><time>2026-04-19T11:10:17.162Z</time></trkpt><trkpt lat="45.715955" lon="9.527167"><ele>449.0</ele><time>2026-04-19T11:10:22.103Z</time></trkpt><trkpt lat="45.7160088" lon="9.5272291"><ele>449.0</ele><time>2026-04-19T11:10:27.047Z</time></trkpt><trkpt lat="45.7160738" lon="9.52727"><ele>446.4285714285714</ele><time>2026-04-19T11:10:31.903Z</time></trkpt><trkpt lat="45.7161479" lon="9.5272746"><ele>443.8571428571428</ele><time>2026-04-19T11:10:36.825Z</time></trkpt><trkpt lat="45.716214" lon="9.5272973"><ele>441.2857142857143</ele><time>2026-04-19T11:10:41.742Z</time></trkpt><trkpt lat="45.7162827" lon="9.5273442"><ele>438.71428571428567</ele><time>2026-04-19T11:10:46.665Z</time></trkpt><trkpt lat="45.7163385" lon="9.5273931"><ele>436.1428571428571</ele><time>2026-04-19T11:10:51.561Z</time></trkpt><trkpt lat="45.7164129" lon="9.5273907"><ele>433.57142857142856</ele><time>2026-04-19T11:10:57.424Z</time></trkpt><trkpt lat="45.7164784" lon="9.5273755"><ele>431.0</ele><time>2026-04-19T11:11:02.292Z</time></trkpt><trkpt lat="45.7165449" lon="9.527405"><ele>431.0</ele><time>2026-04-19T11:11:07.263Z</time></trkpt><trkpt lat="45.7166044" lon="9.5274439"><ele>431.0</ele><time>2026-04-19T11:11:13.203Z</time></trkpt><trkpt lat="45.7166736" lon="9.5274918"><ele>431.0</ele><time>2026-04-19T11:11:20.105Z</time></trkpt><trkpt lat="45.7167336" lon="9.5275192"><ele>431.0</ele><time>2026-04-19T11:11:24.042Z</time></trkpt><trkpt lat="45.716792" lon="9.5275678"><ele>431.0</ele><time>2026-04-19T11:11:28.006Z</time></trkpt><trkpt lat="45.7168596" lon="9.5276246"><ele>431.0</ele><time>2026-04-19T11:11:32.923Z</time></trkpt><trkpt lat="45.716924" lon="9.5276543"><ele>431.0</ele><time>2026-04-19T11:11:37.805Z</time></trkpt><trkpt lat="45.7169858" lon="9.5276875"><ele>431.2857142857143</ele><time>2026-04-19T11:11:43.681Z</time></trkpt><trkpt lat="45.7170507" lon="9.5277386"><ele>431.57142857142856</ele><time>2026-04-19T11:11:49.583Z</time></trkpt><trkpt lat="45.7171072" lon="9.5278045"><ele>431.85714285714283</ele><time>2026-04-19T11:11:54.525Z</time></trkpt><trkpt lat="45.7171536" lon="9.5278734"><ele>432.1428571428571</ele><time>2026-04-19T11:11:59.444Z</time></trkpt><trkpt lat="45.7172027" lon="9.5279471"><ele>432.42857142857144</ele><time>2026-04-19T11:12:05.277Z</time></trkpt><trkpt lat="45.7172175" lon="9.5280494"><ele>432.71428571428567</ele><time>2026-04-19T11:12:11.265Z</time></trkpt><trkpt lat="45.7172563" lon="9.5281407"><ele>433.0</ele><time>2026-04-19T11:12:17.242Z</time></trkpt><trkpt lat="45.7172711" lon="9.5282286"><ele>430.85714285714283</ele><time>2026-04-19T11:12:23.143Z</time></trkpt><trkpt lat="45.7172898" lon="9.5283295"><ele>428.7142857142857</ele><time>2026-04-19T11:12:29.066Z</time></trkpt><trkpt lat="45.7173099" lon="9.5284321"><ele>426.57142857142856</ele><time>2026-04-19T11:12:33.023Z</time></trkpt><trkpt lat="45.7173159" lon="9.5285323"><ele>424.42857142857144</ele><time>2026-04-19T11:12:35.982Z</time></trkpt><trkpt lat="45.7173142" lon="9.5286343"><ele>422.2857142857143</ele><time>2026-04-19T11:12:39.965Z</time></trkpt><trkpt lat="45.7173067" lon="9.5287421"><ele>420.1428571428571</ele><time>2026-04-19T11:12:44.942Z</time></trkpt><trkpt lat="45.7172868" lon="9.5288325"><ele>418.0</ele><time>2026-04-19T11:12:49.905Z</time></trkpt><trkpt lat="45.7172836" lon="9.5289436"><ele>417.7142857142857</ele><time>2026-04-19T11:12:54.865Z</time></trkpt><trkpt lat="45.7173063" lon="9.5290288"><ele>417.42857142857144</ele><time>2026-04-19T11:12:58.825Z</time></trkpt><trkpt lat="45.7173078" lon="9.529126"><ele>417.1428571428571</ele><time>2026-04-19T11:13:03.764Z</time></trkpt><trkpt lat="45.7172933" lon="9.5292181"><ele>416.8571428571429</ele><time>2026-04-19T11:13:10.683Z</time></trkpt><trkpt lat="45.7172965" lon="9.5293171"><ele>416.5714285714286</ele><time>2026-04-19T11:13:15.565Z</time></trkpt><trkpt lat="45.717329" lon="9.5294074"><ele>416.2857142857143</ele><time>2026-04-19T11:13:20.563Z</time></trkpt><trkpt lat="45.7173458" lon="9.5295058"><ele>416.0</ele><time>2026-04-19T11:13:25.545Z</time></trkpt><trkpt lat="45.7173749" lon="9.5295995"><ele>415.1428571428571</ele><time>2026-04-19T11:13:31.442Z</time></trkpt><trkpt lat="45.717407" lon="9.5296806"><ele>414.28571428571433</ele><time>2026-04-19T11:13:37.242Z</time></trkpt><trkpt lat="45.7174523" lon="9.529764"><ele>413.42857142857144</ele><time>2026-04-19T11:13:43.963Z</time></trkpt><trkpt lat="45.7174721" lon="9.5298749"><ele>412.57142857142856</ele><time>2026-04-19T11:13:47.805Z</time></trkpt><trkpt lat="45.7174481" lon="9.5299617"><ele>411.71428571428567</ele><time>2026-04-19T11:13:51.643Z</time></trkpt><trkpt lat="45.7173959" lon="9.5300284"><ele>410.8571428571429</ele><time>2026-04-19T11:13:56.444Z</time></trkpt><trkpt lat="45.7173665" lon="9.5301163"><ele>410.0</ele><time>2026-04-19T11:14:03.185Z</time></trkpt><trkpt lat="45.7173324" lon="9.5301998"><ele>410.0</ele><time>2026-04-19T11:14:09.986Z</time></trkpt><trkpt lat="45.7172923" lon="9.5302891"><ele>410.0</ele><time>2026-04-19T11:14:14.782Z</time></trkpt><trkpt lat="45.7172708" lon="9.5303819"><ele>410.0</ele><time>2026-04-19T11:14:20.645Z</time></trkpt><trkpt lat="45.7172589" lon="9.5304873"><ele>410.0</ele><time>2026-04-19T11:14:26.505Z</time></trkpt><trkpt lat="45.7172557" lon="9.5305896"><ele>410.0</ele><time>2026-04-19T11:14:31.401Z</time></trkpt><trkpt lat="45.7172846" lon="9.5306826"><ele>410.0</ele><time>2026-04-19T11:14:35.285Z</time></trkpt><trkpt lat="45.7172995" lon="9.5307776"><ele>410.0</ele><time>2026-04-19T11:14:42.005Z</time></trkpt><trkpt lat="45.7172708" lon="9.530862"><ele>410.2857142857143</ele><time>2026-04-19T11:14:45.902Z</time></trkpt><trkpt lat="45.7172244" lon="9.5309467"><ele>410.57142857142856</ele><time>2026-04-19T11:14:49.805Z</time></trkpt><trkpt lat="45.7171531" lon="9.5310095"><ele>410.85714285714283</ele><time>2026-04-19T11:14:53.724Z</time></trkpt><trkpt lat="45.7170975" lon="9.5310522"><ele>411.1428571428571</ele><time>2026-04-19T11:14:56.662Z</time></trkpt><trkpt lat="45.71704" lon="9.5311201"><ele>411.42857142857144</ele><time>2026-04-19T11:15:01.523Z</time></trkpt><trkpt lat="45.7170067" lon="9.5311974"><ele>411.71428571428567</ele><time>2026-04-19T11:15:08.302Z</time></trkpt><trkpt lat="45.7169725" lon="9.5312845"><ele>412.0</ele><time>2026-04-19T11:15:16.125Z</time></trkpt><trkpt lat="45.7169351" lon="9.5313813"><ele>411.99999999999994</ele><time>2026-04-19T11:15:20.042Z</time></trkpt><trkpt lat="45.7168888" lon="9.5314818"><ele>412.0</ele><time>2026-04-19T11:15:23.964Z</time></trkpt><trkpt lat="45.7168452" lon="9.5315472"><ele>412.0</ele><time>2026-04-19T11:15:26.902Z</time></trkpt><trkpt lat="45.7168207" lon="9.531651"><ele>412.0</ele><time>2026-04-19T11:15:31.845Z</time></trkpt><trkpt lat="45.7168544" lon="9.5317465"><ele>412.0</ele><time>2026-04-19T11:15:36.722Z</time></trkpt><trkpt lat="45.7168641" lon="9.5318408"><ele>411.99999999999994</ele><time>2026-04-19T11:15:42.544Z</time></trkpt><trkpt lat="45.7168753" lon="9.5319385"><ele>412.0</ele><time>2026-04-19T11:15:48.383Z</time></trkpt><trkpt lat="45.7169049" lon="9.5320264"><ele>412.4285714285714</ele><time>2026-04-19T11:15:55.205Z</time></trkpt><trkpt lat="45.7169278" lon="9.5321207"><ele>412.85714285714283</ele><time>2026-04-19T11:16:01.042Z</time></trkpt><trkpt lat="45.7169086" lon="9.5322287"><ele>413.2857142857143</ele><time>2026-04-19T11:16:05.924Z</time></trkpt><trkpt lat="45.7168815" lon="9.5323116"><ele>413.71428571428567</ele><time>2026-04-19T11:16:09.826Z</time></trkpt><trkpt lat="45.716871" lon="9.5324027"><ele>414.14285714285717</ele><time>2026-04-19T11:16:14.643Z</time></trkpt><trkpt lat="45.7168376" lon="9.5324891"><ele>414.57142857142856</ele><time>2026-04-19T11:16:19.464Z</time></trkpt><trkpt lat="45.7168234" lon="9.5325824"><ele>415.0</ele><time>2026-04-19T11:16:25.286Z</time></trkpt><trkpt lat="45.7168105" lon="9.5326801"><ele>412.7142857142857</ele><time>2026-04-19T11:16:32.046Z</time></trkpt><trkpt lat="45.716771" lon="9.5327755"><ele>410.42857142857144</ele><time>2026-04-19T11:16:36.885Z</time></trkpt><trkpt lat="45.7167388" lon="9.5328608"><ele>408.1428571428571</ele><time>2026-04-19T11:16:40.805Z</time></trkpt><trkpt lat="45.716737" lon="9.5329512"><ele>405.8571428571429</ele><time>2026-04-19T11:16:44.663Z</time></trkpt><trkpt lat="45.7167473" lon="9.5330553"><ele>403.57142857142856</ele><time>2026-04-19T11:16:49.547Z</time></trkpt><trkpt lat="45.7167354" lon="9.5331466"><ele>401.2857142857143</ele><time>2026-04-19T11:16:54.443Z</time></trkpt><trkpt lat="45.7166993" lon="9.5332287"><ele>399.0</ele><time>2026-04-19T11:17:00.328Z</time></trkpt><trkpt lat="45.7166629" lon="9.5333233"><ele>397.85714285714283</ele><time>2026-04-19T11:17:05.225Z</time></trkpt><trkpt lat="45.7166362" lon="9.533407"><ele>396.7142857142857</ele><time>2026-04-19T11:17:10.162Z</time></trkpt><trkpt lat="45.7166369" lon="9.5335038"><ele>395.57142857142856</ele><time>2026-04-19T11:17:15.006Z</time></trkpt><trkpt lat="45.7166387" lon="9.5336073"><ele>394.42857142857144</ele><time>2026-04-19T11:17:18.883Z</time></trkpt><trkpt lat="45.7166344" lon="9.5337093"><ele>393.2857142857143</ele><time>2026-04-19T11:17:22.764Z</time></trkpt><trkpt lat="45.7166126" lon="9.5338123"><ele>392.1428571428571</ele><time>2026-04-19T11:17:28.485Z</time></trkpt><trkpt lat="45.716578" lon="9.5338903"><ele>391.0</ele><time>2026-04-19T11:17:33.322Z</time></trkpt><trkpt lat="45.7165312" lon="9.5339694"><ele>390.2857142857143</ele><time>2026-04-19T11:17:39.19Z</time></trkpt><trkpt lat="45.7164834" lon="9.5340372"><ele>389.57142857142856</ele><time>2026-04-19T11:17:45.084Z</time></trkpt><trkpt lat="45.7164443" lon="9.5341224"><ele>388.8571428571429</ele><time>2026-04-19T11:17:49.846Z</time></trkpt><trkpt lat="45.7163941" lon="9.5341938"><ele>388.1428571428571</ele><time>2026-04-19T11:17:54.722Z</time></trkpt><trkpt lat="45.7163298" lon="9.5342376"><ele>387.42857142857144</ele><time>2026-04-19T11:18:00.565Z</time></trkpt><trkpt lat="45.7162622" lon="9.5342518"><ele>386.7142857142857</ele><time>2026-04-19T11:18:04.463Z</time></trkpt><trkpt lat="45.7161948" lon="9.5342693"><ele>386.0</ele><time>2026-04-19T11:18:08.363Z</time></trkpt><trkpt lat="45.716132" lon="9.5343064"><ele>385.14285714285717</ele><time>2026-04-19T11:18:14.305Z</time></trkpt><trkpt lat="45.7160643" lon="9.5343318"><ele>384.2857142857143</ele><time>2026-04-19T11:18:18.264Z</time></trkpt><trkpt lat="45.7160024" lon="9.5343565"><ele>383.42857142857144</ele><time>2026-04-19T11:18:23.185Z</time></trkpt><trkpt lat="45.7159345" lon="9.5343848"><ele>382.57142857142856</ele><time>2026-04-19T11:18:29.043Z</time></trkpt><trkpt lat="45.7158613" lon="9.5344145"><ele>381.7142857142857</ele><time>2026-04-19T11:18:33.965Z</time></trkpt><trkpt lat="45.7157968" lon="9.5344283"><ele>380.8571428571429</ele><time>2026-04-19T11:18:37.881Z</time></trkpt><trkpt lat="45.7157266" lon="9.5344403"><ele>380.0</ele><time>2026-04-19T11:18:42.783Z</time></trkpt><trkpt lat="45.7156633" lon="9.5344554"><ele>380.0</ele><time>2026-04-19T11:18:48.291Z</time></trkpt><trkpt lat="45.7155988" lon="9.5344778"><ele>380.0</ele><time>2026-04-19T11:18:52.603Z</time></trkpt><trkpt lat="45.7155341" lon="9.5344857"><ele>380.0</ele><time>2026-04-19T11:18:58.463Z</time></trkpt><trkpt lat="45.7154666" lon="9.5345211"><ele>380.0</ele><time>2026-04-19T11:19:05.267Z</time></trkpt><trkpt lat="45.7154089" lon="9.5345676"><ele>380.0</ele><time>2026-04-19T11:19:10.241Z</time></trkpt><trkpt lat="45.7153482" lon="9.5346256"><ele>380.0</ele><time>2026-04-19T11:19:16.181Z</time></trkpt><trkpt lat="45.7152843" lon="9.5346762"><ele>380.0</ele><time>2026-04-19T11:19:23.085Z</time></trkpt><trkpt lat="45.7152141" lon="9.5347186"><ele>381.7142857142857</ele><time>2026-04-19T11:19:30.006Z</time></trkpt><trkpt lat="45.715139" lon="9.5347359"><ele>383.42857142857144</ele><time>2026-04-19T11:19:34.861Z</time></trkpt><trkpt lat="45.7150609" lon="9.5347152"><ele>385.1428571428571</ele><time>2026-04-19T11:19:40.784Z</time></trkpt><trkpt lat="45.7149946" lon="9.5347092"><ele>386.8571428571429</ele><time>2026-04-19T11:19:43.662Z</time></trkpt><trkpt lat="45.714917" lon="9.5346948"><ele>388.57142857142856</ele><time>2026-04-19T11:19:47.585Z</time></trkpt><trkpt lat="45.7148471" lon="9.5346582"><ele>390.2857142857143</ele><time>2026-04-19T11:19:52.481Z</time></trkpt><trkpt lat="45.7147773" lon="9.5346287"><ele>392.0</ele><time>2026-04-19T11:19:57.362Z</time></trkpt><trkpt lat="45.71472" lon="9.5345906"><ele>392.0</ele><time>2026-04-19T11:20:06.203Z</time></trkpt><trkpt lat="45.7146567" lon="9.5346047"><ele>392.0</ele><time>2026-04-19T11:20:14.003Z</time></trkpt><trkpt lat="45.7146611" lon="9.5345005"><ele>392.0</ele><time>2026-04-19T11:20:48.027Z</time></trkpt><trkpt lat="45.7146954" lon="9.5344012"><ele>392.0</ele><time>2026-04-19T11:20:52.924Z</time></trkpt><trkpt lat="45.7147455" lon="9.5343187"><ele>392.0</ele><time>2026-04-19T11:20:57.846Z</time></trkpt><trkpt lat="45.7147325" lon="9.5342157"><ele>392.0</ele><time>2026-04-19T11:21:02.803Z</time></trkpt><trkpt lat="45.7146928" lon="9.5343011"><ele>392.0</ele><time>2026-04-19T11:21:10.785Z</time></trkpt><trkpt lat="45.714662" lon="9.5343928"><ele>388.57142857142856</ele><time>2026-04-19T11:21:17.624Z</time></trkpt><trkpt lat="45.7146021" lon="9.5344336"><ele>385.1428571428571</ele><time>2026-04-19T11:21:23.546Z</time></trkpt><trkpt lat="45.7145392" lon="9.5344414"><ele>381.7142857142857</ele><time>2026-04-19T11:21:27.484Z</time></trkpt><trkpt lat="45.7144734" lon="9.5344232"><ele>378.2857142857143</ele><time>2026-04-19T11:21:32.405Z</time></trkpt><trkpt lat="45.7144065" lon="9.5343905"><ele>374.85714285714283</ele><time>2026-04-19T11:21:38.254Z</time></trkpt><trkpt lat="45.71435" lon="9.5343437"><ele>371.42857142857144</ele><time>2026-04-19T11:21:43.305Z</time></trkpt><trkpt lat="45.7142909" lon="9.534306"><ele>368.0</ele><time>2026-04-19T11:21:47.221Z</time></trkpt><trkpt lat="45.7142264" lon="9.5342674"><ele>366.14285714285717</ele><time>2026-04-19T11:21:53.105Z</time></trkpt><trkpt lat="45.7141552" lon="9.534225"><ele>364.2857142857143</ele><time>2026-04-19T11:21:57.967Z</time></trkpt><trkpt lat="45.7140879" lon="9.5341963"><ele>362.42857142857144</ele><time>2026-04-19T11:22:02.822Z</time></trkpt><trkpt lat="45.7140226" lon="9.5342038"><ele>360.57142857142856</ele><time>2026-04-19T11:22:09.683Z</time></trkpt><trkpt lat="45.7139643" lon="9.5342706"><ele>358.7142857142857</ele><time>2026-04-19T11:22:19.301Z</time></trkpt><trkpt lat="45.7138997" lon="9.5342808"><ele>356.85714285714283</ele><time>2026-04-19T11:22:24.103Z</time></trkpt><trkpt lat="45.7138251" lon="9.5342922"><ele>355.0</ele><time>2026-04-19T11:22:28.904Z</time></trkpt><trkpt lat="45.7137545" lon="9.5343223"><ele>355.0</ele><time>2026-04-19T11:22:33.668Z</time></trkpt><trkpt lat="45.7136848" lon="9.5343504"><ele>355.0</ele><time>2026-04-19T11:22:39.281Z</time></trkpt><trkpt lat="45.7136162" lon="9.5343645"><ele>355.0</ele><time>2026-04-19T11:22:44.962Z</time></trkpt><trkpt lat="45.7135533" lon="9.5343992"><ele>355.0</ele><time>2026-04-19T11:22:49.723Z</time></trkpt><trkpt lat="45.7135137" lon="9.53448"><ele>355.0</ele><time>2026-04-19T11:22:58.281Z</time></trkpt><trkpt lat="45.7134528" lon="9.5345096"><ele>355.0</ele><time>2026-04-19T11:23:04.981Z</time></trkpt><trkpt lat="45.7133811" lon="9.534495"><ele>355.0</ele><time>2026-04-19T11:23:09.743Z</time></trkpt><trkpt lat="45.7133053" lon="9.5344785"><ele>353.2857142857143</ele><time>2026-04-19T11:23:13.565Z</time></trkpt><trkpt lat="45.7132326" lon="9.5344734"><ele>351.57142857142856</ele><time>2026-04-19T11:23:17.422Z</time></trkpt><trkpt lat="45.7131514" lon="9.5344584"><ele>349.8571428571429</ele><time>2026-04-19T11:23:22.304Z</time></trkpt><trkpt lat="45.7130875" lon="9.534478"><ele>348.1428571428571</ele><time>2026-04-19T11:23:31.043Z</time></trkpt><trkpt lat="45.7130144" lon="9.5344592"><ele>346.42857142857144</ele><time>2026-04-19T11:23:35.865Z</time></trkpt><trkpt lat="45.7129854" lon="9.5343689"><ele>344.7142857142857</ele><time>2026-04-19T11:23:39.662Z</time></trkpt><trkpt lat="45.7130272" lon="9.5342692"><ele>343.0</ele><time>2026-04-19T11:23:44.424Z</time></trkpt><trkpt lat="45.7130627" lon="9.5341828"><ele>343.0</ele><time>2026-04-19T11:23:49.185Z</time></trkpt><trkpt lat="45.7130002" lon="9.5341525"><ele>343.0</ele><time>2026-04-19T11:23:58.864Z</time></trkpt><trkpt lat="45.7129537" lon="9.5342361"><ele>343.0</ele><time>2026-04-19T11:24:04.624Z</time></trkpt><trkpt lat="45.7128925" lon="9.5342758"><ele>343.0</ele><time>2026-04-19T11:24:10.364Z</time></trkpt><trkpt lat="45.7128336" lon="9.5343158"><ele>343.0</ele><time>2026-04-19T11:24:17.146Z</time></trkpt><trkpt lat="45.7127728" lon="9.534356"><ele>343.0</ele><time>2026-04-19T11:24:23.846Z</time></trkpt><trkpt lat="45.7127048" lon="9.5343953"><ele>343.0</ele><time>2026-04-19T11:24:29.641Z</time></trkpt><trkpt lat="45.712627" lon="9.5344101"><ele>341.14285714285717</ele><time>2026-04-19T11:24:34.524Z</time></trkpt><trkpt lat="45.7125659" lon="9.5344572"><ele>339.2857142857143</ele><time>2026-04-19T11:24:38.433Z</time></trkpt><trkpt lat="45.7125459" lon="9.5345457"><ele>337.42857142857144</ele><time>2026-04-19T11:24:47.086Z</time></trkpt><trkpt lat="45.7125283" lon="9.5346561"><ele>335.57142857142856</ele><time>2026-04-19T11:24:54.704Z</time></trkpt><trkpt lat="45.7124618" lon="9.5347075"><ele>333.7142857142857</ele><time>2026-04-19T11:24:59.446Z</time></trkpt><trkpt lat="45.712393" lon="9.5346913"><ele>331.8571428571429</ele><time>2026-04-19T11:25:04.19Z</time></trkpt><trkpt lat="45.7123418" lon="9.5346322"><ele>330.0</ele><time>2026-04-19T11:25:08.965Z</time></trkpt><trkpt lat="45.7123115" lon="9.5345475"><ele>329.00000000000006</ele><time>2026-04-19T11:25:12.806Z</time></trkpt><trkpt lat="45.7123052" lon="9.5344568"><ele>328.0</ele><time>2026-04-19T11:25:16.644Z</time></trkpt><trkpt lat="45.7122894" lon="9.534356"><ele>327.0</ele><time>2026-04-19T11:25:21.485Z</time></trkpt><trkpt lat="45.7122709" lon="9.5342602"><ele>326.0</ele><time>2026-04-19T11:25:27.285Z</time></trkpt><trkpt lat="45.7122928" lon="9.5341714"><ele>325.0</ele><time>2026-04-19T11:25:34.107Z</time></trkpt><trkpt lat="45.7123256" lon="9.534068"><ele>324.00000000000006</ele><time>2026-04-19T11:25:38.843Z</time></trkpt><trkpt lat="45.712349" lon="9.5339826"><ele>323.0</ele><time>2026-04-19T11:25:41.748Z</time></trkpt><trkpt lat="45.7123603" lon="9.5338874"><ele>323.00000000000006</ele><time>2026-04-19T11:25:45.563Z</time></trkpt><trkpt lat="45.7123176" lon="9.5338172"><ele>323.0</ele><time>2026-04-19T11:25:51.303Z</time></trkpt><trkpt lat="45.7122532" lon="9.5338139"><ele>323.0</ele><time>2026-04-19T11:25:57.004Z</time></trkpt><trkpt lat="45.7121888" lon="9.5338214"><ele>323.0</ele><time>2026-04-19T11:26:01.787Z</time></trkpt><trkpt lat="45.7121262" lon="9.5338314"><ele>323.0</ele><time>2026-04-19T11:26:07.561Z</time></trkpt><trkpt lat="45.7120627" lon="9.5338447"><ele>323.00000000000006</ele><time>2026-04-19T11:26:14.321Z</time></trkpt><trkpt lat="45.7120293" lon="9.5339263"><ele>323.0</ele><time>2026-04-19T11:26:24.087Z</time></trkpt><trkpt lat="45.7120126" lon="9.5340156"><ele>323.00000000000006</ele><time>2026-04-19T11:26:29.942Z</time></trkpt><trkpt lat="45.7120102" lon="9.5341185"><ele>323.0</ele><time>2026-04-19T11:26:34.785Z</time></trkpt><trkpt lat="45.7119889" lon="9.5342034"><ele>323.0</ele><time>2026-04-19T11:26:39.647Z</time></trkpt><trkpt lat="45.7119632" lon="9.5342981"><ele>323.0</ele><time>2026-04-19T11:26:46.446Z</time></trkpt><trkpt lat="45.7119471" lon="9.5343932"><ele>323.0</ele><time>2026-04-19T11:26:53.201Z</time></trkpt><trkpt lat="45.7119343" lon="9.5344852"><ele>323.00000000000006</ele><time>2026-04-19T11:26:59.023Z</time></trkpt><trkpt lat="45.7119288" lon="9.5345753"><ele>323.0</ele><time>2026-04-19T11:27:02.885Z</time></trkpt><trkpt lat="45.7119137" lon="9.5346642"><ele>324.00000000000006</ele><time>2026-04-19T11:27:05.782Z</time></trkpt><trkpt lat="45.7119036" lon="9.5347661"><ele>325.0</ele><time>2026-04-19T11:27:10.645Z</time></trkpt><trkpt lat="45.7119023" lon="9.5348717"><ele>326.0</ele><time>2026-04-19T11:27:16.521Z</time></trkpt><trkpt lat="45.7119205" lon="9.5349636"><ele>327.0</ele><time>2026-04-19T11:27:22.3Z</time></trkpt><trkpt lat="45.7119044" lon="9.5350633"><ele>328.0</ele><time>2026-04-19T11:27:28.226Z</time></trkpt><trkpt lat="45.7118655" lon="9.5351368"><ele>329.00000000000006</ele><time>2026-04-19T11:27:32.244Z</time></trkpt><trkpt lat="45.7118039" lon="9.5351971"><ele>330.0</ele><time>2026-04-19T11:27:40.28Z</time></trkpt><trkpt lat="45.7117577" lon="9.535262"><ele>326.8571428571429</ele><time>2026-04-19T11:27:46.204Z</time></trkpt><trkpt lat="45.7116887" lon="9.5352506"><ele>323.7142857142857</ele><time>2026-04-19T11:27:51.102Z</time></trkpt><trkpt lat="45.7116167" lon="9.5352279"><ele>320.57142857142856</ele><time>2026-04-19T11:27:55.004Z</time></trkpt><trkpt lat="45.7115555" lon="9.5351964"><ele>317.42857142857144</ele><time>2026-04-19T11:27:58.865Z</time></trkpt><trkpt lat="45.711498" lon="9.5351451"><ele>314.2857142857143</ele><time>2026-04-19T11:28:04.763Z</time></trkpt><trkpt lat="45.7114385" lon="9.5351105"><ele>311.14285714285717</ele><time>2026-04-19T11:28:10.665Z</time></trkpt><trkpt lat="45.7113768" lon="9.5350764"><ele>308.0</ele><time>2026-04-19T11:28:14.624Z</time></trkpt><trkpt lat="45.711323" lon="9.5350178"><ele>308.0</ele><time>2026-04-19T11:28:18.525Z</time></trkpt><trkpt lat="45.7112693" lon="9.5349658"><ele>308.0</ele><time>2026-04-19T11:28:23.462Z</time></trkpt><trkpt lat="45.7112054" lon="9.5349615"><ele>308.0</ele><time>2026-04-19T11:28:29.404Z</time></trkpt><trkpt lat="45.711142" lon="9.5349923"><ele>308.0</ele><time>2026-04-19T11:28:35.285Z</time></trkpt><trkpt lat="45.7110794" lon="9.5349695"><ele>308.0</ele><time>2026-04-19T11:28:43.965Z</time></trkpt><trkpt lat="45.7110042" lon="9.5349664"><ele>308.0</ele><time>2026-04-19T11:28:48.821Z</time></trkpt><trkpt lat="45.7109404" lon="9.5349645"><ele>308.0</ele><time>2026-04-19T11:28:53.664Z</time></trkpt><trkpt lat="45.7108742" lon="9.5349648"><ele>307.0</ele><time>2026-04-19T11:28:58.464Z</time></trkpt><trkpt lat="45.7108068" lon="9.5349658"><ele>306.0</ele><time>2026-04-19T11:29:03.265Z</time></trkpt><trkpt lat="45.7107408" lon="9.5349548"><ele>305.0</ele><time>2026-04-19T11:29:08.082Z</time></trkpt><trkpt lat="45.7106731" lon="9.5349485"><ele>304.0</ele><time>2026-04-19T11:29:14.863Z</time></trkpt><trkpt lat="45.7106014" lon="9.534967"><ele>303.0</ele><time>2026-04-19T11:29:20.748Z</time></trkpt><trkpt lat="45.7105331" lon="9.5349811"><ele>302.0</ele><time>2026-04-19T11:29:26.586Z</time></trkpt><trkpt lat="45.7104627" lon="9.534989"><ele>301.0</ele><time>2026-04-19T11:29:33.288Z</time></trkpt><trkpt lat="45.7103985" lon="9.5349894"><ele>301.0</ele><time>2026-04-19T11:29:37.284Z</time></trkpt><trkpt lat="45.7103294" lon="9.5350037"><ele>301.0</ele><time>2026-04-19T11:29:43.046Z</time></trkpt><trkpt lat="45.7102618" lon="9.5350345"><ele>301.0</ele><time>2026-04-19T11:29:48.866Z</time></trkpt><trkpt lat="45.7101776" lon="9.5350519"><ele>301.0</ele><time>2026-04-19T11:29:52.723Z</time></trkpt><trkpt lat="45.7101118" lon="9.5350503"><ele>301.0</ele><time>2026-04-19T11:29:55.641Z</time></trkpt><trkpt lat="45.7100396" lon="9.5350652"><ele>301.0</ele><time>2026-04-19T11:29:59.544Z</time></trkpt><trkpt lat="45.7099715" lon="9.535112"><ele>301.0</ele><time>2026-04-19T11:30:05.446Z</time></trkpt><trkpt lat="45.7099097" lon="9.5351565"><ele>298.14285714285717</ele><time>2026-04-19T11:30:11.302Z</time></trkpt><trkpt lat="45.7098898" lon="9.5350702"><ele>295.2857142857143</ele><time>2026-04-19T11:30:18.043Z</time></trkpt><trkpt lat="45.7099077" lon="9.534963"><ele>292.42857142857144</ele><time>2026-04-19T11:30:21.924Z</time></trkpt><trkpt lat="45.7099412" lon="9.5348761"><ele>289.57142857142856</ele><time>2026-04-19T11:30:24.863Z</time></trkpt><trkpt lat="45.7099928" lon="9.5347886"><ele>286.7142857142857</ele><time>2026-04-19T11:30:27.806Z</time></trkpt><trkpt lat="45.7100607" lon="9.5347394"><ele>283.8571428571429</ele><time>2026-04-19T11:30:31.703Z</time></trkpt><trkpt lat="45.7101106" lon="9.5346677"><ele>281.0</ele><time>2026-04-19T11:30:37.585Z</time></trkpt><trkpt lat="45.7101374" lon="9.5345645"><ele>280.42857142857144</ele><time>2026-04-19T11:30:45.212Z</time></trkpt><trkpt lat="45.7101374" lon="9.5344661"><ele>279.8571428571429</ele><time>2026-04-19T11:30:51.148Z</time></trkpt><trkpt lat="45.7101675" lon="9.5343679"><ele>279.2857142857143</ele><time>2026-04-19T11:30:56.962Z</time></trkpt><trkpt lat="45.7102143" lon="9.5342695"><ele>278.7142857142857</ele><time>2026-04-19T11:31:00.906Z</time></trkpt><trkpt lat="45.7102446" lon="9.5341879"><ele>278.1428571428571</ele><time>2026-04-19T11:31:04.783Z</time></trkpt><trkpt lat="45.7102835" lon="9.5341038"><ele>277.57142857142856</ele><time>2026-04-19T11:31:09.623Z</time></trkpt><trkpt lat="45.7103086" lon="9.5340137"><ele>277.0</ele><time>2026-04-19T11:31:15.546Z</time></trkpt><trkpt lat="45.7102992" lon="9.5339169"><ele>276.85714285714283</ele><time>2026-04-19T11:31:21.422Z</time></trkpt><trkpt lat="45.7103048" lon="9.5338202"><ele>276.71428571428567</ele><time>2026-04-19T11:31:28.182Z</time></trkpt><trkpt lat="45.7103116" lon="9.5337304"><ele>276.57142857142856</ele><time>2026-04-19T11:31:35.922Z</time></trkpt><trkpt lat="45.7103077" lon="9.53363"><ele>276.42857142857144</ele><time>2026-04-19T11:31:41.791Z</time></trkpt><trkpt lat="45.7102905" lon="9.5335295"><ele>276.28571428571433</ele><time>2026-04-19T11:31:46.566Z</time></trkpt><trkpt lat="45.7102554" lon="9.5334417"><ele>276.14285714285717</ele><time>2026-04-19T11:31:50.832Z</time></trkpt><trkpt lat="45.7102296" lon="9.5333443"><ele>276.0</ele><time>2026-04-19T11:31:56.746Z</time></trkpt><trkpt lat="45.7102287" lon="9.5332484"><ele>276.0</ele><time>2026-04-19T11:32:01.241Z</time></trkpt><trkpt lat="45.7102378" lon="9.533158"><ele>276.0</ele><time>2026-04-19T11:32:07.102Z</time></trkpt><trkpt lat="45.710221" lon="9.5330546"><ele>276.0</ele><time>2026-04-19T11:32:12.964Z</time></trkpt><trkpt lat="45.710192" lon="9.5329674"><ele>276.0</ele><time>2026-04-19T11:32:17.847Z</time></trkpt><trkpt lat="45.7101537" lon="9.5328863"><ele>276.0</ele><time>2026-04-19T11:32:23.763Z</time></trkpt><trkpt lat="45.7101154" lon="9.5327926"><ele>276.0</ele><time>2026-04-19T11:32:30.764Z</time></trkpt><trkpt lat="45.7100771" lon="9.5327124"><ele>276.0</ele><time>2026-04-19T11:32:35.963Z</time></trkpt><trkpt lat="45.7100781" lon="9.5326219"><ele>276.42857142857144</ele><time>2026-04-19T11:32:41.234Z</time></trkpt><trkpt lat="45.7100441" lon="9.5325343"><ele>276.8571428571429</ele><time>2026-04-19T11:32:49.282Z</time></trkpt><trkpt lat="45.7099948" lon="9.532456"><ele>277.2857142857143</ele><time>2026-04-19T11:32:55.324Z</time></trkpt><trkpt lat="45.7099712" lon="9.5323702"><ele>277.7142857142857</ele><time>2026-04-19T11:33:00.219Z</time></trkpt><trkpt lat="45.7099533" lon="9.5322797"><ele>278.1428571428571</ele><time>2026-04-19T11:33:05.242Z</time></trkpt><trkpt lat="45.7099248" lon="9.5321899"><ele>278.57142857142856</ele><time>2026-04-19T11:33:11.269Z</time></trkpt><trkpt lat="45.7098939" lon="9.5321112"><ele>279.0</ele><time>2026-04-19T11:33:16.323Z</time></trkpt><trkpt lat="45.7098752" lon="9.5320244"><ele>280.2857142857143</ele><time>2026-04-19T11:33:21.314Z</time></trkpt><trkpt lat="45.709861" lon="9.531936"><ele>281.57142857142856</ele><time>2026-04-19T11:33:28.245Z</time></trkpt><trkpt lat="45.7098043" lon="9.5318731"><ele>282.8571428571429</ele><time>2026-04-19T11:33:36.282Z</time></trkpt><trkpt lat="45.7097987" lon="9.5317705"><ele>284.1428571428571</ele><time>2026-04-19T11:33:45.176Z</time></trkpt><trkpt lat="45.7098222" lon="9.5316861"><ele>285.42857142857144</ele><time>2026-04-19T11:33:50.244Z</time></trkpt><trkpt lat="45.7098276" lon="9.5315911"><ele>286.7142857142857</ele><time>2026-04-19T11:33:56.175Z</time></trkpt><trkpt lat="45.70984" lon="9.5314942"><ele>288.0</ele><time>2026-04-19T11:34:01.294Z</time></trkpt><trkpt lat="45.7098549" lon="9.5313923"><ele>288.00000000000006</ele><time>2026-04-19T11:34:07.306Z</time></trkpt><trkpt lat="45.7098994" lon="9.5313223"><ele>288.0</ele><time>2026-04-19T11:34:12.185Z</time></trkpt><trkpt lat="45.7099066" lon="9.5312309"><ele>288.0</ele><time>2026-04-19T11:34:19.275Z</time></trkpt><trkpt lat="45.70993" lon="9.5311374"><ele>288.0</ele><time>2026-04-19T11:34:26.206Z</time></trkpt><trkpt lat="45.7099597" lon="9.5310523"><ele>288.0</ele><time>2026-04-19T11:34:31.201Z</time></trkpt><trkpt lat="45.7099741" lon="9.5309589"><ele>288.00000000000006</ele><time>2026-04-19T11:34:36.244Z</time></trkpt><trkpt lat="45.7099827" lon="9.5308605"><ele>288.0</ele><time>2026-04-19T11:34:41.282Z</time></trkpt><trkpt lat="45.7100115" lon="9.5307625"><ele>289.00000000000006</ele><time>2026-04-19T11:34:47.284Z</time></trkpt><trkpt lat="45.7100235" lon="9.530665"><ele>290.0</ele><time>2026-04-19T11:34:52.224Z</time></trkpt><trkpt lat="45.7100578" lon="9.5305708"><ele>291.0</ele><time>2026-04-19T11:34:58.188Z</time></trkpt><trkpt lat="45.7100962" lon="9.5304801"><ele>292.0</ele><time>2026-04-19T11:35:04.278Z</time></trkpt><trkpt lat="45.7101293" lon="9.5303865"><ele>293.0</ele><time>2026-04-19T11:35:10.282Z</time></trkpt><trkpt lat="45.7101384" lon="9.5302948"><ele>294.00000000000006</ele><time>2026-04-19T11:35:15.264Z</time></trkpt><trkpt lat="45.7101706" lon="9.5301972"><ele>295.0</ele><time>2026-04-19T11:35:21.254Z</time></trkpt><trkpt lat="45.7102125" lon="9.5301106"><ele>296.14285714285717</ele><time>2026-04-19T11:35:27.284Z</time></trkpt><trkpt lat="45.7102453" lon="9.5300293"><ele>297.2857142857143</ele><time>2026-04-19T11:35:33.309Z</time></trkpt><trkpt lat="45.7102589" lon="9.5299339"><ele>298.42857142857144</ele><time>2026-04-19T11:35:39.235Z</time></trkpt><trkpt lat="45.7102321" lon="9.5298473"><ele>299.57142857142856</ele><time>2026-04-19T11:35:50.286Z</time></trkpt><trkpt lat="45.7102166" lon="9.5297448"><ele>300.7142857142857</ele><time>2026-04-19T11:35:58.242Z</time></trkpt><trkpt lat="45.7102108" lon="9.5296419"><ele>301.8571428571429</ele><time>2026-04-19T11:36:05.252Z</time></trkpt><trkpt lat="45.7102048" lon="9.5295282"><ele>303.0</ele><time>2026-04-19T11:36:10.262Z</time></trkpt><trkpt lat="45.7102026" lon="9.5294356"><ele>306.7142857142857</ele><time>2026-04-19T11:36:14.285Z</time></trkpt><trkpt lat="45.7102511" lon="9.5293644"><ele>310.42857142857144</ele><time>2026-04-19T11:36:20.041Z</time></trkpt><trkpt lat="45.7102875" lon="9.529261"><ele>314.1428571428571</ele><time>2026-04-19T11:36:26.024Z</time></trkpt><trkpt lat="45.7102988" lon="9.5291641"><ele>317.8571428571429</ele><time>2026-04-19T11:36:30.021Z</time></trkpt><trkpt lat="45.7102918" lon="9.5290543"><ele>321.57142857142856</ele><time>2026-04-19T11:36:33.963Z</time></trkpt><trkpt lat="45.710301" lon="9.5289383"><ele>325.2857142857143</ele><time>2026-04-19T11:36:37.912Z</time></trkpt><trkpt lat="45.7103128" lon="9.5288492"><ele>329.0</ele><time>2026-04-19T11:36:41.846Z</time></trkpt><trkpt lat="45.7103321" lon="9.5287553"><ele>329.0</ele><time>2026-04-19T11:36:45.823Z</time></trkpt><trkpt lat="45.7103261" lon="9.5286569"><ele>329.0</ele><time>2026-04-19T11:36:52.888Z</time></trkpt><trkpt lat="45.7103349" lon="9.5285626"><ele>329.0</ele><time>2026-04-19T11:36:58.767Z</time></trkpt><trkpt lat="45.7103582" lon="9.5284746"><ele>329.0</ele><time>2026-04-19T11:37:03.824Z</time></trkpt><trkpt lat="45.7103774" lon="9.5283811"><ele>329.0</ele><time>2026-04-19T11:37:07.841Z</time></trkpt><trkpt lat="45.7103951" lon="9.5282877"><ele>329.0</ele><time>2026-04-19T11:37:11.806Z</time></trkpt><trkpt lat="45.7104025" lon="9.5281857"><ele>329.0</ele><time>2026-04-19T11:37:16.763Z</time></trkpt><trkpt lat="45.710433" lon="9.5280998"><ele>329.0</ele><time>2026-04-19T11:37:21.765Z</time></trkpt><trkpt lat="45.7104544" lon="9.5280117"><ele>329.0</ele><time>2026-04-19T11:37:26.802Z</time></trkpt><trkpt lat="45.7104806" lon="9.5279245"><ele>329.0</ele><time>2026-04-19T11:37:31.945Z</time></trkpt><trkpt lat="45.7105165" lon="9.5278413"><ele>329.0</ele><time>2026-04-19T11:37:36.943Z</time></trkpt><trkpt lat="45.7105301" lon="9.5277522"><ele>329.0</ele><time>2026-04-19T11:37:45.184Z</time></trkpt><trkpt lat="45.7105391" lon="9.5276522"><ele>329.0</ele><time>2026-04-19T11:37:54.243Z</time></trkpt><trkpt lat="45.710558" lon="9.5275438"><ele>329.0</ele><time>2026-04-19T11:38:00.27Z</time></trkpt><trkpt lat="45.7105762" lon="9.5274493"><ele>328.7142857142857</ele><time>2026-04-19T11:38:04.288Z</time></trkpt><trkpt lat="45.7105821" lon="9.5273455"><ele>328.42857142857144</ele><time>2026-04-19T11:38:10.221Z</time></trkpt><trkpt lat="45.7106201" lon="9.5272513"><ele>328.1428571428571</ele><time>2026-04-19T11:38:15.237Z</time></trkpt><trkpt lat="45.7105849" lon="9.5271697"><ele>327.8571428571429</ele><time>2026-04-19T11:38:24.266Z</time></trkpt><trkpt lat="45.7105305" lon="9.5271161"><ele>327.57142857142856</ele><time>2026-04-19T11:38:33.218Z</time></trkpt><trkpt lat="45.7104958" lon="9.5270334"><ele>327.2857142857143</ele><time>2026-04-19T11:38:39.246Z</time></trkpt><trkpt lat="45.7104837" lon="9.5269449"><ele>327.0</ele><time>2026-04-19T11:38:48.286Z</time></trkpt><trkpt lat="45.7105164" lon="9.5268432"><ele>327.0</ele><time>2026-04-19T11:38:52.283Z</time></trkpt><trkpt lat="45.7105174" lon="9.5267357"><ele>327.0</ele><time>2026-04-19T11:38:57.227Z</time></trkpt><trkpt lat="45.7104766" lon="9.5266379"><ele>327.0</ele><time>2026-04-19T11:39:01.245Z</time></trkpt><trkpt lat="45.7104321" lon="9.5265703"><ele>327.0</ele><time>2026-04-19T11:39:05.263Z</time></trkpt><trkpt lat="45.7103667" lon="9.5265203"><ele>327.0</ele><time>2026-04-19T11:39:10.285Z</time></trkpt><trkpt lat="45.7103174" lon="9.5264575"><ele>327.0</ele><time>2026-04-19T11:39:15.208Z</time></trkpt><trkpt lat="45.7103169" lon="9.5263587"><ele>327.0</ele><time>2026-04-19T11:39:21.304Z</time></trkpt><trkpt lat="45.7103361" lon="9.5262692"><ele>326.7142857142857</ele><time>2026-04-19T11:39:26.224Z</time></trkpt><trkpt lat="45.7103292" lon="9.5261715"><ele>326.42857142857144</ele><time>2026-04-19T11:39:31.242Z</time></trkpt><trkpt lat="45.7103267" lon="9.5260747"><ele>326.1428571428571</ele><time>2026-04-19T11:39:36.305Z</time></trkpt><trkpt lat="45.7103307" lon="9.5259682"><ele>325.8571428571429</ele><time>2026-04-19T11:39:41.225Z</time></trkpt><trkpt lat="45.7103407" lon="9.5258592"><ele>325.5714285714286</ele><time>2026-04-19T11:39:46.247Z</time></trkpt><trkpt lat="45.7103671" lon="9.5257771"><ele>325.2857142857143</ele><time>2026-04-19T11:39:50.265Z</time></trkpt><trkpt lat="45.7103982" lon="9.5256833"><ele>325.0</ele><time>2026-04-19T11:39:55.288Z</time></trkpt><trkpt lat="45.7104043" lon="9.525568"><ele>325.0</ele><time>2026-04-19T11:40:00.311Z</time></trkpt><trkpt lat="45.7104004" lon="9.5254674"><ele>325.0</ele><time>2026-04-19T11:40:05.233Z</time></trkpt><trkpt lat="45.7104021" lon="9.5253722"><ele>325.0</ele><time>2026-04-19T11:40:10.243Z</time></trkpt><trkpt lat="45.7104197" lon="9.5252709"><ele>325.0</ele><time>2026-04-19T11:40:17.287Z</time></trkpt><trkpt lat="45.7104395" lon="9.5251743"><ele>325.0</ele><time>2026-04-19T11:40:22.311Z</time></trkpt><trkpt lat="45.7104562" lon="9.5250868"><ele>325.0</ele><time>2026-04-19T11:40:25.223Z</time></trkpt><trkpt lat="45.7104663" lon="9.5249851"><ele>325.0</ele><time>2026-04-19T11:40:31.25Z</time></trkpt><trkpt lat="45.7104826" lon="9.5248509"><ele>324.57142857142856</ele><time>2026-04-19T11:40:46.217Z</time></trkpt><trkpt lat="45.7105213" lon="9.5247675"><ele>324.14285714285717</ele><time>2026-04-19T11:40:51.24Z</time></trkpt><trkpt lat="45.7105548" lon="9.5246787"><ele>323.7142857142857</ele><time>2026-04-19T11:40:57.267Z</time></trkpt><trkpt lat="45.7105892" lon="9.5246011"><ele>323.2857142857143</ele><time>2026-04-19T11:41:02.322Z</time></trkpt><trkpt lat="45.7106322" lon="9.5245183"><ele>322.8571428571429</ele><time>2026-04-19T11:41:08.125Z</time></trkpt><trkpt lat="45.7106926" lon="9.5244608"><ele>322.42857142857144</ele><time>2026-04-19T11:41:33.283Z</time></trkpt><trkpt lat="45.7107612" lon="9.5244124"><ele>322.0</ele><time>2026-04-19T11:41:39.672Z</time></trkpt><trkpt lat="45.7108032" lon="9.5243409"><ele>322.0</ele><time>2026-04-19T11:41:44.28Z</time></trkpt><trkpt lat="45.7109036" lon="9.524413"><ele>322.0</ele><time>2026-04-19T11:41:45.189Z</time></trkpt><trkpt lat="45.7108775" lon="9.5243176"><ele>322.0</ele><time>2026-04-19T11:41:50.244Z</time></trkpt><trkpt lat="45.7108168" lon="9.5242883"><ele>322.0</ele><time>2026-04-19T11:41:54.225Z</time></trkpt><trkpt lat="45.7107475" lon="9.5242747"><ele>322.0</ele><time>2026-04-19T11:41:58.245Z</time></trkpt><trkpt lat="45.7106902" lon="9.524213"><ele>322.0</ele><time>2026-04-19T11:42:04.271Z</time></trkpt><trkpt lat="45.7106679" lon="9.5241163"><ele>322.0</ele><time>2026-04-19T11:42:09.193Z</time></trkpt><trkpt lat="45.7106907" lon="9.5240204"><ele>322.0</ele><time>2026-04-19T11:42:13.212Z</time></trkpt><trkpt lat="45.7107084" lon="9.5239212"><ele>322.0</ele><time>2026-04-19T11:42:18.234Z</time></trkpt><trkpt lat="45.7107284" lon="9.5238322"><ele>322.0</ele><time>2026-04-19T11:42:23.257Z</time></trkpt><trkpt lat="45.7107674" lon="9.5237515"><ele>322.0</ele><time>2026-04-19T11:42:28.18Z</time></trkpt><trkpt lat="45.7107948" lon="9.5236562"><ele>322.0</ele><time>2026-04-19T11:42:33.183Z</time></trkpt><trkpt lat="45.7108236" lon="9.5235567"><ele>322.0</ele><time>2026-04-19T11:42:39.162Z</time></trkpt><trkpt lat="45.710856" lon="9.5234702"><ele>321.42857142857144</ele><time>2026-04-19T11:42:44.253Z</time></trkpt><trkpt lat="45.710871" lon="9.523375"><ele>320.8571428571429</ele><time>2026-04-19T11:42:49.142Z</time></trkpt><trkpt lat="45.7109084" lon="9.5233019"><ele>320.2857142857143</ele><time>2026-04-19T11:42:53.125Z</time></trkpt><trkpt lat="45.7109672" lon="9.5232399"><ele>319.7142857142857</ele><time>2026-04-19T11:42:58.001Z</time></trkpt><trkpt lat="45.7110243" lon="9.5231826"><ele>319.14285714285717</ele><time>2026-04-19T11:43:03.084Z</time></trkpt><trkpt lat="45.711086" lon="9.5231363"><ele>318.57142857142856</ele><time>2026-04-19T11:43:07.962Z</time></trkpt><trkpt lat="45.7110344" lon="9.5230821"><ele>318.0</ele><time>2026-04-19T11:43:18.062Z</time></trkpt><trkpt lat="45.7109651" lon="9.5230972"><ele>318.0</ele><time>2026-04-19T11:43:27.044Z</time></trkpt><trkpt lat="45.7108974" lon="9.5230659"><ele>318.0</ele><time>2026-04-19T11:43:32.242Z</time></trkpt><trkpt lat="45.7108482" lon="9.522989"><ele>318.0</ele><time>2026-04-19T11:43:36.289Z</time></trkpt><trkpt lat="45.7108311" lon="9.5228939"><ele>318.0</ele><time>2026-04-19T11:43:41.264Z</time></trkpt><trkpt lat="45.7108365" lon="9.522792"><ele>318.0</ele><time>2026-04-19T11:43:49.248Z</time></trkpt><trkpt lat="45.7108422" lon="9.5226852"><ele>318.0</ele><time>2026-04-19T11:43:54.271Z</time></trkpt><trkpt lat="45.7108514" lon="9.5225861"><ele>318.0</ele><time>2026-04-19T11:43:59.294Z</time></trkpt><trkpt lat="45.7108363" lon="9.5224881"><ele>318.1428571428571</ele><time>2026-04-19T11:44:05.22Z</time></trkpt><trkpt lat="45.7108271" lon="9.5223927"><ele>318.28571428571433</ele><time>2026-04-19T11:44:11.248Z</time></trkpt><trkpt lat="45.7108315" lon="9.5222864"><ele>318.42857142857144</ele><time>2026-04-19T11:44:16.271Z</time></trkpt><trkpt lat="45.7108465" lon="9.5221895"><ele>318.57142857142856</ele><time>2026-04-19T11:44:21.293Z</time></trkpt><trkpt lat="45.7108543" lon="9.5220963"><ele>318.71428571428567</ele><time>2026-04-19T11:44:25.211Z</time></trkpt><trkpt lat="45.7108329" lon="9.5220091"><ele>318.8571428571429</ele><time>2026-04-19T11:44:32.243Z</time></trkpt><trkpt lat="45.7108348" lon="9.5219164"><ele>319.0</ele><time>2026-04-19T11:44:40.279Z</time></trkpt><trkpt lat="45.7108146" lon="9.5218199"><ele>318.5714285714286</ele><time>2026-04-19T11:44:46.307Z</time></trkpt><trkpt lat="45.7108022" lon="9.5217223"><ele>318.1428571428571</ele><time>2026-04-19T11:44:53.238Z</time></trkpt><trkpt lat="45.7108257" lon="9.5216274"><ele>317.7142857142857</ele><time>2026-04-19T11:45:00.27Z</time></trkpt><trkpt lat="45.7108292" lon="9.521529"><ele>317.28571428571433</ele><time>2026-04-19T11:45:06.298Z</time></trkpt><trkpt lat="45.7108555" lon="9.5214414"><ele>316.8571428571429</ele><time>2026-04-19T11:45:11.22Z</time></trkpt><trkpt lat="45.7108722" lon="9.5213442"><ele>316.42857142857144</ele><time>2026-04-19T11:45:20.261Z</time></trkpt><trkpt lat="45.7109101" lon="9.521241"><ele>316.0</ele><time>2026-04-19T11:45:25.283Z</time></trkpt><trkpt lat="45.7109669" lon="9.5211787"><ele>316.00000000000006</ele><time>2026-04-19T11:45:30.19Z</time></trkpt><trkpt lat="45.7110168" lon="9.5211119"><ele>316.0</ele><time>2026-04-19T11:45:34.966Z</time></trkpt><trkpt lat="45.7110801" lon="9.5210392"><ele>316.0</ele><time>2026-04-19T11:45:39.924Z</time></trkpt><trkpt lat="45.7111512" lon="9.5210072"><ele>316.0</ele><time>2026-04-19T11:45:45.883Z</time></trkpt><trkpt lat="45.7111233" lon="9.5209172"><ele>316.0</ele><time>2026-04-19T11:45:54.243Z</time></trkpt><trkpt lat="45.7110865" lon="9.520814"><ele>316.00000000000006</ele><time>2026-04-19T11:45:59.237Z</time></trkpt><trkpt lat="45.7110527" lon="9.5207343"><ele>316.0</ele><time>2026-04-19T11:46:02.243Z</time></trkpt><trkpt lat="45.7110324" lon="9.5206411"><ele>316.00000000000006</ele><time>2026-04-19T11:46:07.274Z</time></trkpt><trkpt lat="45.7109965" lon="9.5205514"><ele>316.0</ele><time>2026-04-19T11:46:13.301Z</time></trkpt><trkpt lat="45.7109555" lon="9.5204773"><ele>316.0</ele><time>2026-04-19T11:46:18.223Z</time></trkpt><trkpt lat="45.7109436" lon="9.5203758"><ele>316.0</ele><time>2026-04-19T11:46:24.251Z</time></trkpt><trkpt lat="45.7109413" lon="9.5202646"><ele>316.0</ele><time>2026-04-19T11:46:30.278Z</time></trkpt><trkpt lat="45.7109439" lon="9.5201635"><ele>316.00000000000006</ele><time>2026-04-19T11:46:34.296Z</time></trkpt><trkpt lat="45.710953" lon="9.5200708"><ele>316.0</ele><time>2026-04-19T11:46:38.214Z</time></trkpt><trkpt lat="45.7109579" lon="9.5199645"><ele>315.8571428571429</ele><time>2026-04-19T11:46:43.237Z</time></trkpt><trkpt lat="45.710938" lon="9.5198718"><ele>315.7142857142857</ele><time>2026-04-19T11:46:48.259Z</time></trkpt><trkpt lat="45.7108731" lon="9.5198499"><ele>315.57142857142856</ele><time>2026-04-19T11:46:54.287Z</time></trkpt><trkpt lat="45.710816" lon="9.5197992"><ele>315.42857142857144</ele><time>2026-04-19T11:47:01.345Z</time></trkpt><trkpt lat="45.7107469" lon="9.5197381"><ele>315.2857142857143</ele><time>2026-04-19T11:47:07.284Z</time></trkpt><trkpt lat="45.7106906" lon="9.5196685"><ele>315.14285714285717</ele><time>2026-04-19T11:47:13.184Z</time></trkpt><trkpt lat="45.7106449" lon="9.5195994"><ele>315.0</ele><time>2026-04-19T11:47:18.132Z</time></trkpt><trkpt lat="45.7106106" lon="9.5195043"><ele>316.2857142857143</ele><time>2026-04-19T11:47:23.088Z</time></trkpt><trkpt lat="45.7105778" lon="9.5194148"><ele>317.57142857142856</ele><time>2026-04-19T11:47:27.082Z</time></trkpt><trkpt lat="45.7105506" lon="9.5193329"><ele>318.8571428571429</ele><time>2026-04-19T11:47:31.047Z</time></trkpt><trkpt lat="45.7105555" lon="9.5192326"><ele>320.1428571428571</ele><time>2026-04-19T11:47:36.084Z</time></trkpt><trkpt lat="45.7105636" lon="9.5191384"><ele>321.42857142857144</ele><time>2026-04-19T11:47:41.066Z</time></trkpt><trkpt lat="45.7105823" lon="9.5190441"><ele>322.7142857142857</ele><time>2026-04-19T11:47:46.09Z</time></trkpt><trkpt lat="45.7105899" lon="9.5189448"><ele>324.0</ele><time>2026-04-19T11:47:52.187Z</time></trkpt><trkpt lat="45.7106053" lon="9.5188485"><ele>324.0</ele><time>2026-04-19T11:47:58.305Z</time></trkpt><trkpt lat="45.7106222" lon="9.5187477"><ele>324.0</ele><time>2026-04-19T11:48:03.299Z</time></trkpt><trkpt lat="45.7106494" lon="9.5186636"><ele>324.0</ele><time>2026-04-19T11:48:07.217Z</time></trkpt><trkpt lat="45.710681" lon="9.5185593"><ele>324.0</ele><time>2026-04-19T11:48:12.239Z</time></trkpt><trkpt lat="45.7107017" lon="9.5184728"><ele>324.0</ele><time>2026-04-19T11:48:16.257Z</time></trkpt><trkpt lat="45.710719" lon="9.5183641"><ele>324.0</ele><time>2026-04-19T11:51:06.228Z</time></trkpt><trkpt lat="45.710756" lon="9.5182813"><ele>324.0</ele><time>2026-04-19T11:51:10.247Z</time></trkpt><trkpt lat="45.7107948" lon="9.5182073"><ele>323.42857142857144</ele><time>2026-04-19T11:51:15.301Z</time></trkpt><trkpt lat="45.710849" lon="9.5181417"><ele>322.85714285714283</ele><time>2026-04-19T11:51:21.145Z</time></trkpt><trkpt lat="45.7108737" lon="9.5180489"><ele>322.2857142857143</ele><time>2026-04-19T11:51:27.045Z</time></trkpt><trkpt lat="45.7109014" lon="9.5179485"><ele>321.7142857142857</ele><time>2026-04-19T11:51:31.882Z</time></trkpt><trkpt lat="45.7109294" lon="9.5178535"><ele>321.14285714285717</ele><time>2026-04-19T11:51:35.725Z</time></trkpt><trkpt lat="45.7109473" lon="9.517763"><ele>320.57142857142856</ele><time>2026-04-19T11:51:40.562Z</time></trkpt><trkpt lat="45.7109776" lon="9.5176757"><ele>320.0</ele><time>2026-04-19T11:51:47.143Z</time></trkpt><trkpt lat="45.711019" lon="9.5175876"><ele>318.6666666666667</ele><time>2026-04-19T11:51:54.247Z</time></trkpt><trkpt lat="45.7110711" lon="9.517522"><ele>317.33333333333337</ele><time>2026-04-19T11:52:00.274Z</time></trkpt><trkpt lat="45.7111293" lon="9.5174664"><ele>316.0</ele><time>2026-04-19T11:52:05.297Z</time></trkpt><trkpt lat="45.7111882" lon="9.517407"><ele>314.6666666666667</ele><time>2026-04-19T11:52:11.281Z</time></trkpt><trkpt lat="45.7112371" lon="9.5173463"><ele>313.3333333333333</ele><time>2026-04-19T11:52:16.264Z</time></trkpt><trkpt lat="45.7112745" lon="9.5172401"><ele>312.0</ele><time>2026-04-19T11:52:28.202Z</time></trkpt><trkpt lat="45.7113226" lon="9.5171247"><ele>313.0</ele><time>2026-04-19T11:52:32.221Z</time></trkpt><trkpt lat="45.7113719" lon="9.517037"><ele>314.0</ele><time>2026-04-19T11:52:35.234Z</time></trkpt><trkpt lat="45.7113974" lon="9.5169517"><ele>315.0</ele><time>2026-04-19T11:52:39.252Z</time></trkpt><trkpt lat="45.7114265" lon="9.5168565"><ele>316.0</ele><time>2026-04-19T11:52:44.282Z</time></trkpt><trkpt lat="45.711463" lon="9.5167807"><ele>317.0</ele><time>2026-04-19T11:52:50.105Z</time></trkpt><trkpt lat="45.7114997" lon="9.5166983"><ele>318.0</ele><time>2026-04-19T11:52:55.945Z</time></trkpt><trkpt lat="45.7115604" lon="9.5166355"><ele>319.0</ele><time>2026-04-19T11:52:59.863Z</time></trkpt><trkpt lat="45.7116208" lon="9.5165741"><ele>319.0</ele><time>2026-04-19T11:53:03.763Z</time></trkpt><trkpt lat="45.7116746" lon="9.5165046"><ele>319.0</ele><time>2026-04-19T11:53:10.602Z</time></trkpt><trkpt lat="45.7117079" lon="9.5164187"><ele>319.0</ele><time>2026-04-19T11:53:16.429Z</time></trkpt><trkpt lat="45.7117175" lon="9.5163263"><ele>319.0</ele><time>2026-04-19T11:53:21.282Z</time></trkpt><trkpt lat="45.7116652" lon="9.5162667"><ele>319.0</ele><time>2026-04-19T11:53:29.041Z</time></trkpt><trkpt lat="45.7116006" lon="9.516222"><ele>319.0</ele><time>2026-04-19T11:53:34.923Z</time></trkpt><trkpt lat="45.7115337" lon="9.5161852"><ele>319.0</ele><time>2026-04-19T11:53:38.809Z</time></trkpt><trkpt lat="45.7114755" lon="9.5161271"><ele>319.8571428571429</ele><time>2026-04-19T11:53:43.666Z</time></trkpt><trkpt lat="45.711437" lon="9.5160401"><ele>320.71428571428567</ele><time>2026-04-19T11:53:49.545Z</time></trkpt><trkpt lat="45.711406" lon="9.5159569"><ele>321.57142857142856</ele><time>2026-04-19T11:53:54.361Z</time></trkpt><trkpt lat="45.7113561" lon="9.5158927"><ele>322.42857142857144</ele><time>2026-04-19T11:53:59.264Z</time></trkpt><trkpt lat="45.7113195" lon="9.5158076"><ele>323.28571428571433</ele><time>2026-04-19T11:54:06.206Z</time></trkpt><trkpt lat="45.7112928" lon="9.5157205"><ele>324.1428571428571</ele><time>2026-04-19T11:54:12.124Z</time></trkpt><trkpt lat="45.7112684" lon="9.5156302"><ele>325.0</ele><time>2026-04-19T11:54:17.089Z</time></trkpt><trkpt lat="45.7112552" lon="9.5155244"><ele>325.0</ele><time>2026-04-19T11:54:22.124Z</time></trkpt><trkpt lat="45.711268" lon="9.5154248"><ele>325.0</ele><time>2026-04-19T11:54:27.149Z</time></trkpt><trkpt lat="45.7112737" lon="9.5153288"><ele>325.0</ele><time>2026-04-19T11:54:32.264Z</time></trkpt><trkpt lat="45.71128" lon="9.515227"><ele>325.0</ele><time>2026-04-19T11:54:38.194Z</time></trkpt><trkpt lat="45.7112905" lon="9.5151288"><ele>325.0</ele><time>2026-04-19T11:54:43.218Z</time></trkpt><trkpt lat="45.7113044" lon="9.515036"><ele>325.0</ele><time>2026-04-19T11:54:48.24Z</time></trkpt><trkpt lat="45.7113238" lon="9.5149412"><ele>325.0</ele><time>2026-04-19T11:54:53.223Z</time></trkpt><trkpt lat="45.7113337" lon="9.5148392"><ele>323.4285714285714</ele><time>2026-04-19T11:54:58.286Z</time></trkpt><trkpt lat="45.7112914" lon="9.5147666"><ele>321.8571428571429</ele><time>2026-04-19T11:55:06.222Z</time></trkpt><trkpt lat="45.7112247" lon="9.5147561"><ele>320.2857142857143</ele><time>2026-04-19T11:55:11.245Z</time></trkpt><trkpt lat="45.7111517" lon="9.5147371"><ele>318.71428571428567</ele><time>2026-04-19T11:55:16.268Z</time></trkpt><trkpt lat="45.7110759" lon="9.514736"><ele>317.1428571428571</ele><time>2026-04-19T11:55:21.282Z</time></trkpt><trkpt lat="45.711008" lon="9.5147109"><ele>315.57142857142856</ele><time>2026-04-19T11:55:26.213Z</time></trkpt><trkpt lat="45.7109435" lon="9.5146814"><ele>314.0</ele><time>2026-04-19T11:55:34.121Z</time></trkpt><trkpt lat="45.7108895" lon="9.5146226"><ele>315.85714285714283</ele><time>2026-04-19T11:55:40.224Z</time></trkpt><trkpt lat="45.7108434" lon="9.5145519"><ele>317.7142857142857</ele><time>2026-04-19T11:55:45.303Z</time></trkpt><trkpt lat="45.7108112" lon="9.5144639"><ele>319.57142857142856</ele><time>2026-04-19T11:55:50.222Z</time></trkpt><trkpt lat="45.7107792" lon="9.5143663"><ele>321.42857142857144</ele><time>2026-04-19T11:55:55.246Z</time></trkpt><trkpt lat="45.7107531" lon="9.5142573"><ele>323.2857142857143</ele><time>2026-04-19T11:56:00.186Z</time></trkpt><trkpt lat="45.710722" lon="9.5141662"><ele>325.1428571428571</ele><time>2026-04-19T11:56:04.305Z</time></trkpt><trkpt lat="45.710679" lon="9.514083"><ele>327.0</ele><time>2026-04-19T11:56:09.361Z</time></trkpt><trkpt lat="45.7106247" lon="9.5140309"><ele>327.0</ele><time>2026-04-19T11:56:17.544Z</time></trkpt><trkpt lat="45.7105664" lon="9.514096"><ele>327.0</ele><time>2026-04-19T11:56:25.445Z</time></trkpt><trkpt lat="45.7105007" lon="9.514145"><ele>327.0</ele><time>2026-04-19T11:56:30.524Z</time></trkpt><trkpt lat="45.710434" lon="9.5141603"><ele>327.0</ele><time>2026-04-19T11:56:35.481Z</time></trkpt><trkpt lat="45.7103569" lon="9.514144"><ele>327.0</ele><time>2026-04-19T11:56:40.403Z</time></trkpt><trkpt lat="45.71029" lon="9.5140901"><ele>327.0</ele><time>2026-04-19T11:56:45.273Z</time></trkpt><trkpt lat="45.7102348" lon="9.5140383"><ele>327.0</ele><time>2026-04-19T11:56:49.243Z</time></trkpt><trkpt lat="45.7101765" lon="9.5139823"><ele>325.7142857142857</ele><time>2026-04-19T11:56:53.201Z</time></trkpt><trkpt lat="45.7101233" lon="9.5139261"><ele>324.42857142857144</ele><time>2026-04-19T11:56:57.104Z</time></trkpt><trkpt lat="45.7100738" lon="9.5138697"><ele>323.1428571428571</ele><time>2026-04-19T11:57:03.981Z</time></trkpt><trkpt lat="45.7100118" lon="9.5138319"><ele>321.8571428571429</ele><time>2026-04-19T11:57:10.902Z</time></trkpt><trkpt lat="45.7099586" lon="9.5137553"><ele>320.5714285714286</ele><time>2026-04-19T11:57:15.845Z</time></trkpt><trkpt lat="45.7099065" lon="9.5136943"><ele>319.2857142857143</ele><time>2026-04-19T11:57:19.783Z</time></trkpt><trkpt lat="45.7098523" lon="9.5136465"><ele>318.0</ele><time>2026-04-19T11:57:24.729Z</time></trkpt><trkpt lat="45.7098369" lon="9.5135482"><ele>318.0</ele><time>2026-04-19T11:57:30.582Z</time></trkpt><trkpt lat="45.7098968" lon="9.5135092"><ele>318.0</ele><time>2026-04-19T11:57:36.082Z</time></trkpt><trkpt lat="45.7099506" lon="9.5134509"><ele>318.0</ele><time>2026-04-19T11:57:40.005Z</time></trkpt><trkpt lat="45.7100017" lon="9.5133955"><ele>318.0</ele><time>2026-04-19T11:57:42.903Z</time></trkpt><trkpt lat="45.7100707" lon="9.5133366"><ele>318.0</ele><time>2026-04-19T11:57:46.788Z</time></trkpt><trkpt lat="45.7101206" lon="9.5132787"><ele>318.0</ele><time>2026-04-19T11:57:51.664Z</time></trkpt><trkpt lat="45.710179" lon="9.5132215"><ele>318.0</ele><time>2026-04-19T11:57:56.536Z</time></trkpt><trkpt lat="45.7102187" lon="9.5131446"><ele>317.7142857142857</ele><time>2026-04-19T11:58:02.361Z</time></trkpt><trkpt lat="45.7102692" lon="9.513082"><ele>317.42857142857144</ele><time>2026-04-19T11:58:09.223Z</time></trkpt><trkpt lat="45.7103304" lon="9.5130231"><ele>317.14285714285717</ele><time>2026-04-19T11:58:16.136Z</time></trkpt><trkpt lat="45.7103773" lon="9.5129522"><ele>316.8571428571429</ele><time>2026-04-19T11:58:21.044Z</time></trkpt><trkpt lat="45.7104124" lon="9.5128726"><ele>316.57142857142856</ele><time>2026-04-19T11:58:24.928Z</time></trkpt><trkpt lat="45.7104546" lon="9.5127984"><ele>316.28571428571433</ele><time>2026-04-19T11:58:28.803Z</time></trkpt><trkpt lat="45.7105002" lon="9.5127192"><ele>316.0</ele><time>2026-04-19T11:58:33.665Z</time></trkpt><trkpt lat="45.7105749" lon="9.512684"><ele>316.00000000000006</ele><time>2026-04-19T11:58:39.561Z</time></trkpt><trkpt lat="45.7106426" lon="9.5126535"><ele>316.0</ele><time>2026-04-19T11:58:45.364Z</time></trkpt><trkpt lat="45.7106996" lon="9.5126143"><ele>316.0</ele><time>2026-04-19T11:58:51.146Z</time></trkpt><trkpt lat="45.7107528" lon="9.512527"><ele>316.0</ele><time>2026-04-19T11:58:56.921Z</time></trkpt><trkpt lat="45.7107997" lon="9.5124508"><ele>316.0</ele><time>2026-04-19T11:59:00.765Z</time></trkpt><trkpt lat="45.7108301" lon="9.5123668"><ele>316.00000000000006</ele><time>2026-04-19T11:59:06.567Z</time></trkpt><trkpt lat="45.7108463" lon="9.5122711"><ele>316.0</ele><time>2026-04-19T11:59:12.381Z</time></trkpt><trkpt lat="45.7108643" lon="9.5121731"><ele>316.00000000000006</ele><time>2026-04-19T11:59:18.193Z</time></trkpt><trkpt lat="45.7108941" lon="9.5120783"><ele>316.0</ele><time>2026-04-19T11:59:24.015Z</time></trkpt><trkpt lat="45.7109415" lon="9.5119803"><ele>316.0</ele><time>2026-04-19T11:59:27.903Z</time></trkpt><trkpt lat="45.7110061" lon="9.5119232"><ele>316.0</ele><time>2026-04-19T11:59:31.882Z</time></trkpt><trkpt lat="45.7110792" lon="9.5118891"><ele>316.0</ele><time>2026-04-19T11:59:35.945Z</time></trkpt><trkpt lat="45.7111416" lon="9.5118684"><ele>316.00000000000006</ele><time>2026-04-19T11:59:40.065Z</time></trkpt><trkpt lat="45.7111875" lon="9.5117836"><ele>316.0</ele><time>2026-04-19T11:59:45.129Z</time></trkpt><trkpt lat="45.7112133" lon="9.5116953"><ele>315.00000000000006</ele><time>2026-04-19T11:59:50.217Z</time></trkpt><trkpt lat="45.7112261" lon="9.5116059"><ele>314.0</ele><time>2026-04-19T11:59:59.325Z</time></trkpt><trkpt lat="45.711173" lon="9.511546"><ele>313.0</ele><time>2026-04-19T12:00:06.291Z</time></trkpt><trkpt lat="45.7111177" lon="9.5114988"><ele>312.0</ele><time>2026-04-19T12:00:13.223Z</time></trkpt><trkpt lat="45.7110933" lon="9.5114146"><ele>311.0</ele><time>2026-04-19T12:00:18.324Z</time></trkpt><trkpt lat="45.7110731" lon="9.511322"><ele>310.00000000000006</ele><time>2026-04-19T12:00:23.269Z</time></trkpt><trkpt lat="45.711069" lon="9.5112273"><ele>309.0</ele><time>2026-04-19T12:00:30.222Z</time></trkpt><trkpt lat="45.7110678" lon="9.5111289"><ele>312.7142857142857</ele><time>2026-04-19T12:00:38.237Z</time></trkpt><trkpt lat="45.7110919" lon="9.5110212"><ele>316.42857142857144</ele><time>2026-04-19T12:00:43.261Z</time></trkpt><trkpt lat="45.7111097" lon="9.5109281"><ele>320.1428571428571</ele><time>2026-04-19T12:00:47.278Z</time></trkpt><trkpt lat="45.7111155" lon="9.5108232"><ele>323.8571428571429</ele><time>2026-04-19T12:00:52.201Z</time></trkpt><trkpt lat="45.7111241" lon="9.5107228"><ele>327.57142857142856</ele><time>2026-04-19T12:00:57.223Z</time></trkpt><trkpt lat="45.7111723" lon="9.5106353"><ele>331.2857142857143</ele><time>2026-04-19T12:01:02.246Z</time></trkpt><trkpt lat="45.7112292" lon="9.5105561"><ele>335.0</ele><time>2026-04-19T12:01:08.274Z</time></trkpt><trkpt lat="45.7112663" lon="9.5104819"><ele>332.99999999999994</ele><time>2026-04-19T12:01:13.297Z</time></trkpt><trkpt lat="45.711318" lon="9.5103979"><ele>331.0</ele><time>2026-04-19T12:01:18.22Z</time></trkpt><trkpt lat="45.7113699" lon="9.5103321"><ele>329.0</ele><time>2026-04-19T12:01:23.264Z</time></trkpt><trkpt lat="45.7114181" lon="9.5102563"><ele>327.0</ele><time>2026-04-19T12:01:30.107Z</time></trkpt><trkpt lat="45.7114521" lon="9.5101709"><ele>325.0</ele><time>2026-04-19T12:01:37.023Z</time></trkpt><trkpt lat="45.7114795" lon="9.5100845"><ele>322.99999999999994</ele><time>2026-04-19T12:01:42.904Z</time></trkpt><trkpt lat="45.7115485" lon="9.5100182"><ele>321.0</ele><time>2026-04-19T12:01:48.806Z</time></trkpt><trkpt lat="45.7116148" lon="9.5099719"><ele>320.99999999999994</ele><time>2026-04-19T12:01:53.724Z</time></trkpt><trkpt lat="45.7116682" lon="9.5099078"><ele>321.0</ele><time>2026-04-19T12:01:57.721Z</time></trkpt><trkpt lat="45.7117152" lon="9.5098329"><ele>321.0</ele><time>2026-04-19T12:02:01.731Z</time></trkpt><trkpt lat="45.7117475" lon="9.5097386"><ele>321.0</ele><time>2026-04-19T12:02:06.723Z</time></trkpt><trkpt lat="45.7117486" lon="9.509636"><ele>321.0</ele><time>2026-04-19T12:02:11.707Z</time></trkpt><trkpt lat="45.7117162" lon="9.509545"><ele>320.99999999999994</ele><time>2026-04-19T12:02:18.521Z</time></trkpt><trkpt lat="45.7116482" lon="9.5095626"><ele>321.0</ele><time>2026-04-19T12:02:22.484Z</time></trkpt><trkpt lat="45.7115778" lon="9.5095525"><ele>320.1428571428571</ele><time>2026-04-19T12:02:26.443Z</time></trkpt><trkpt lat="45.7115043" lon="9.5095345"><ele>319.2857142857143</ele><time>2026-04-19T12:02:31.252Z</time></trkpt><trkpt lat="45.7114511" lon="9.5094807"><ele>318.42857142857144</ele><time>2026-04-19T12:02:38.284Z</time></trkpt><trkpt lat="45.7114294" lon="9.5093793"><ele>317.57142857142856</ele><time>2026-04-19T12:02:47.283Z</time></trkpt><trkpt lat="45.7113868" lon="9.5092965"><ele>316.7142857142857</ele><time>2026-04-19T12:02:52.246Z</time></trkpt><trkpt lat="45.7113452" lon="9.5092248"><ele>315.85714285714283</ele><time>2026-04-19T12:02:56.203Z</time></trkpt><trkpt lat="45.7113099" lon="9.5091363"><ele>315.0</ele><time>2026-04-19T12:03:01.15Z</time></trkpt><trkpt lat="45.711276" lon="9.5090373"><ele>315.0</ele><time>2026-04-19T12:03:06.084Z</time></trkpt><trkpt lat="45.7112468" lon="9.5089471"><ele>315.0</ele><time>2026-04-19T12:03:11.043Z</time></trkpt><trkpt lat="45.7112643" lon="9.5088457"><ele>315.0</ele><time>2026-04-19T12:03:17.104Z</time></trkpt><trkpt lat="45.7112568" lon="9.5087454"><ele>315.0</ele><time>2026-04-19T12:03:22.181Z</time></trkpt><trkpt lat="45.7112235" lon="9.5086606"><ele>315.0</ele><time>2026-04-19T12:03:28.147Z</time></trkpt><trkpt lat="45.7111845" lon="9.5085862"><ele>315.0</ele><time>2026-04-19T12:03:34.101Z</time></trkpt><trkpt lat="45.7111373" lon="9.5084986"><ele>315.0</ele><time>2026-04-19T12:03:39.066Z</time></trkpt><trkpt lat="45.7110808" lon="9.5084414"><ele>312.57142857142856</ele><time>2026-04-19T12:03:43.981Z</time></trkpt><trkpt lat="45.7110215" lon="9.5084048"><ele>310.1428571428571</ele><time>2026-04-19T12:03:47.973Z</time></trkpt><trkpt lat="45.7109633" lon="9.5083628"><ele>307.7142857142857</ele><time>2026-04-19T12:03:53.901Z</time></trkpt><trkpt lat="45.7108875" lon="9.5083717"><ele>305.2857142857143</ele><time>2026-04-19T12:03:59.947Z</time></trkpt><trkpt lat="45.7108189" lon="9.5083727"><ele>302.85714285714283</ele><time>2026-04-19T12:04:04.942Z</time></trkpt><trkpt lat="45.7107445" lon="9.5083866"><ele>300.42857142857144</ele><time>2026-04-19T12:04:09.905Z</time></trkpt><trkpt lat="45.7106785" lon="9.5083979"><ele>298.0</ele><time>2026-04-19T12:04:13.811Z</time></trkpt><trkpt lat="45.7106227" lon="9.5083545"><ele>298.0</ele><time>2026-04-19T12:04:18.725Z</time></trkpt><trkpt lat="45.710567" lon="9.5083002"><ele>298.0</ele><time>2026-04-19T12:04:23.562Z</time></trkpt><trkpt lat="45.7105183" lon="9.5082341"><ele>298.0</ele><time>2026-04-19T12:04:28.484Z</time></trkpt><trkpt lat="45.7104599" lon="9.5081811"><ele>298.0</ele><time>2026-04-19T12:04:34.321Z</time></trkpt><trkpt lat="45.7104004" lon="9.5081339"><ele>298.0</ele><time>2026-04-19T12:04:41.143Z</time></trkpt><trkpt lat="45.7103645" lon="9.5080545"><ele>298.0</ele><time>2026-04-19T12:04:46.985Z</time></trkpt><trkpt lat="45.7103129" lon="9.5079757"><ele>298.0</ele><time>2026-04-19T12:04:50.881Z</time></trkpt><trkpt lat="45.7102623" lon="9.5079059"><ele>296.85714285714283</ele><time>2026-04-19T12:04:54.79Z</time></trkpt><trkpt lat="45.7102102" lon="9.5078497"><ele>295.71428571428567</ele><time>2026-04-19T12:04:59.641Z</time></trkpt><trkpt lat="45.7101648" lon="9.507785"><ele>294.57142857142856</ele><time>2026-04-19T12:05:05.444Z</time></trkpt><trkpt lat="45.7101073" lon="9.5077271"><ele>293.42857142857144</ele><time>2026-04-19T12:05:11.204Z</time></trkpt><trkpt lat="45.7100503" lon="9.5076571"><ele>292.28571428571433</ele><time>2026-04-19T12:05:17.886Z</time></trkpt><trkpt lat="45.7099994" lon="9.5075739"><ele>291.14285714285717</ele><time>2026-04-19T12:05:22.622Z</time></trkpt><trkpt lat="45.7099403" lon="9.5075029"><ele>290.0</ele><time>2026-04-19T12:05:27.322Z</time></trkpt><trkpt lat="45.7098891" lon="9.5074445"><ele>290.0</ele><time>2026-04-19T12:05:34.003Z</time></trkpt><trkpt lat="45.709842" lon="9.5073813"><ele>290.0</ele><time>2026-04-19T12:05:37.846Z</time></trkpt><trkpt lat="45.7097909" lon="9.5073069"><ele>290.0</ele><time>2026-04-19T12:05:42.662Z</time></trkpt><trkpt lat="45.7097432" lon="9.5072379"><ele>290.0</ele><time>2026-04-19T12:05:47.485Z</time></trkpt><trkpt lat="45.7096849" lon="9.5071912"><ele>290.0</ele><time>2026-04-19T12:05:53.242Z</time></trkpt><trkpt lat="45.7096256" lon="9.5071211"><ele>290.0</ele><time>2026-04-19T12:06:00.934Z</time></trkpt><trkpt lat="45.7095571" lon="9.5070688"><ele>290.0</ele><time>2026-04-19T12:06:05.783Z</time></trkpt><trkpt lat="45.7094931" lon="9.5070354"><ele>289.8571428571429</ele><time>2026-04-19T12:06:10.625Z</time></trkpt><trkpt lat="45.7094339" lon="9.5069804"><ele>289.7142857142857</ele><time>2026-04-19T12:06:16.465Z</time></trkpt><trkpt lat="45.7093853" lon="9.5068998"><ele>289.57142857142856</ele><time>2026-04-19T12:06:22.206Z</time></trkpt><trkpt lat="45.7093311" lon="9.5068437"><ele>289.42857142857144</ele><time>2026-04-19T12:06:29.185Z</time></trkpt><trkpt lat="45.7092586" lon="9.5067956"><ele>289.2857142857143</ele><time>2026-04-19T12:06:35.946Z</time></trkpt><trkpt lat="45.709186" lon="9.5067395"><ele>289.14285714285717</ele><time>2026-04-19T12:06:39.784Z</time></trkpt><trkpt lat="45.7091209" lon="9.5066902"><ele>289.0</ele><time>2026-04-19T12:06:44.625Z</time></trkpt><trkpt lat="45.7090612" lon="9.5066364"><ele>288.57142857142856</ele><time>2026-04-19T12:06:49.425Z</time></trkpt><trkpt lat="45.7090003" lon="9.5065744"><ele>288.1428571428571</ele><time>2026-04-19T12:06:54.253Z</time></trkpt><trkpt lat="45.7089438" lon="9.5065082"><ele>287.71428571428567</ele><time>2026-04-19T12:06:58.222Z</time></trkpt><trkpt lat="45.7089096" lon="9.5064309"><ele>287.2857142857143</ele><time>2026-04-19T12:07:02.106Z</time></trkpt><trkpt lat="45.7088717" lon="9.5063446"><ele>286.85714285714283</ele><time>2026-04-19T12:07:05.963Z</time></trkpt><trkpt lat="45.7088193" lon="9.5062694"><ele>286.4285714285714</ele><time>2026-04-19T12:07:09.826Z</time></trkpt><trkpt lat="45.7087829" lon="9.5061939"><ele>286.0</ele><time>2026-04-19T12:07:13.743Z</time></trkpt><trkpt lat="45.7087604" lon="9.5061003"><ele>285.71428571428567</ele><time>2026-04-19T12:07:19.585Z</time></trkpt><trkpt lat="45.7087563" lon="9.5059995"><ele>285.42857142857144</ele><time>2026-04-19T12:07:25.424Z</time></trkpt><trkpt lat="45.7087446" lon="9.5058973"><ele>285.1428571428571</ele><time>2026-04-19T12:07:30.284Z</time></trkpt><trkpt lat="45.7087197" lon="9.5058028"><ele>284.85714285714283</ele><time>2026-04-19T12:07:36.087Z</time></trkpt><trkpt lat="45.7086525" lon="9.5057823"><ele>284.57142857142856</ele><time>2026-04-19T12:07:40.923Z</time></trkpt><trkpt lat="45.7085814" lon="9.5057822"><ele>284.2857142857143</ele><time>2026-04-19T12:07:44.766Z</time></trkpt><trkpt lat="45.7085079" lon="9.5057886"><ele>284.0</ele><time>2026-04-19T12:07:49.663Z</time></trkpt><trkpt lat="45.7084405" lon="9.5058015"><ele>283.2857142857143</ele><time>2026-04-19T12:07:55.545Z</time></trkpt><trkpt lat="45.7083716" lon="9.5058158"><ele>282.57142857142856</ele><time>2026-04-19T12:08:01.361Z</time></trkpt><trkpt lat="45.7083018" lon="9.5058157"><ele>281.85714285714283</ele><time>2026-04-19T12:08:08.202Z</time></trkpt><trkpt lat="45.7082268" lon="9.5058248"><ele>281.1428571428571</ele><time>2026-04-19T12:08:16.842Z</time></trkpt><trkpt lat="45.7081542" lon="9.5058299"><ele>280.42857142857144</ele><time>2026-04-19T12:08:22.645Z</time></trkpt><trkpt lat="45.7080853" lon="9.5058409"><ele>279.71428571428567</ele><time>2026-04-19T12:08:27.426Z</time></trkpt><trkpt lat="45.7080137" lon="9.5058627"><ele>279.0</ele><time>2026-04-19T12:08:32.242Z</time></trkpt><trkpt lat="45.7079575" lon="9.505914"><ele>278.99999999999994</ele><time>2026-04-19T12:08:38.046Z</time></trkpt><trkpt lat="45.7078941" lon="9.5059411"><ele>279.0</ele><time>2026-04-19T12:08:41.881Z</time></trkpt><trkpt lat="45.7078363" lon="9.5059783"><ele>279.0</ele><time>2026-04-19T12:08:44.805Z</time></trkpt><trkpt lat="45.7077714" lon="9.5060292"><ele>279.0</ele><time>2026-04-19T12:08:48.643Z</time></trkpt><trkpt lat="45.70771" lon="9.5060828"><ele>279.0</ele><time>2026-04-19T12:08:56.31Z</time></trkpt><trkpt lat="45.7076512" lon="9.5061385"><ele>278.99999999999994</ele><time>2026-04-19T12:09:03.204Z</time></trkpt><trkpt lat="45.7075703" lon="9.5061456"><ele>279.0</ele><time>2026-04-19T12:09:30.265Z</time></trkpt><trkpt lat="45.7074942" lon="9.5061705"><ele>279.3333333333333</ele><time>2026-04-19T12:09:34.301Z</time></trkpt><trkpt lat="45.7074245" lon="9.5062093"><ele>279.6666666666667</ele><time>2026-04-19T12:09:39.223Z</time></trkpt><trkpt lat="45.7073552" lon="9.5062577"><ele>280.0</ele><time>2026-04-19T12:09:45.18Z</time></trkpt><trkpt lat="45.7072874" lon="9.506297"><ele>280.33333333333337</ele><time>2026-04-19T12:09:50.062Z</time></trkpt><trkpt lat="45.7072197" lon="9.5063423"><ele>280.6666666666667</ele><time>2026-04-19T12:09:53.965Z</time></trkpt><trkpt lat="45.7071442" lon="9.5063627"><ele>281.0</ele><time>2026-04-19T12:09:57.903Z</time></trkpt><trkpt lat="45.7070696" lon="9.5063621"><ele>280.5714285714286</ele><time>2026-04-19T12:10:01.801Z</time></trkpt><trkpt lat="45.7070014" lon="9.506354"><ele>280.14285714285717</ele><time>2026-04-19T12:10:06.705Z</time></trkpt><trkpt lat="45.7069385" lon="9.5063732"><ele>279.7142857142857</ele><time>2026-04-19T12:10:12.582Z</time></trkpt><trkpt lat="45.7068771" lon="9.5064278"><ele>279.28571428571433</ele><time>2026-04-19T12:10:18.323Z</time></trkpt><trkpt lat="45.7068069" lon="9.5064543"><ele>278.8571428571429</ele><time>2026-04-19T12:10:24.244Z</time></trkpt><trkpt lat="45.7067413" lon="9.5064664"><ele>278.42857142857144</ele><time>2026-04-19T12:10:30.141Z</time></trkpt><trkpt lat="45.7066715" lon="9.5064516"><ele>278.0</ele><time>2026-04-19T12:10:35.065Z</time></trkpt><trkpt lat="45.7066082" lon="9.5064421"><ele>278.0</ele><time>2026-04-19T12:10:38.963Z</time></trkpt><trkpt lat="45.7065265" lon="9.5064286"><ele>278.0</ele><time>2026-04-19T12:10:42.824Z</time></trkpt><trkpt lat="45.7064515" lon="9.5064258"><ele>278.0</ele><time>2026-04-19T12:10:46.723Z</time></trkpt><trkpt lat="45.7063795" lon="9.5064207"><ele>278.0</ele><time>2026-04-19T12:10:52.463Z</time></trkpt><trkpt lat="45.7063185" lon="9.5064579"><ele>278.0</ele><time>2026-04-19T12:10:57.225Z</time></trkpt><trkpt lat="45.7062478" lon="9.5064793"><ele>278.0</ele><time>2026-04-19T12:11:02.901Z</time></trkpt><trkpt lat="45.706175" lon="9.5064863"><ele>278.0</ele><time>2026-04-19T12:11:07.26Z</time></trkpt><trkpt lat="45.7061088" lon="9.5064553"><ele>278.42857142857144</ele><time>2026-04-19T12:11:11.064Z</time></trkpt><trkpt lat="45.7060405" lon="9.5064194"><ele>278.8571428571429</ele><time>2026-04-19T12:11:16.251Z</time></trkpt><trkpt lat="45.7059721" lon="9.5064305"><ele>279.28571428571433</ele><time>2026-04-19T12:11:21.273Z</time></trkpt><trkpt lat="45.7059051" lon="9.506448"><ele>279.7142857142857</ele><time>2026-04-19T12:11:26.296Z</time></trkpt><trkpt lat="45.7058366" lon="9.5064696"><ele>280.14285714285717</ele><time>2026-04-19T12:11:33.228Z</time></trkpt><trkpt lat="45.7057707" lon="9.5064976"><ele>280.5714285714286</ele><time>2026-04-19T12:11:39.255Z</time></trkpt><trkpt lat="45.7056946" lon="9.5065206"><ele>281.0</ele><time>2026-04-19T12:11:44.278Z</time></trkpt><trkpt lat="45.7056348" lon="9.5065769"><ele>281.00000000000006</ele><time>2026-04-19T12:11:48.297Z</time></trkpt><trkpt lat="45.7055666" lon="9.5065995"><ele>281.0</ele><time>2026-04-19T12:11:55.025Z</time></trkpt><trkpt lat="45.7055" lon="9.5065538"><ele>281.0</ele><time>2026-04-19T12:11:59.742Z</time></trkpt><trkpt lat="45.7054437" lon="9.5064684"><ele>281.0</ele><time>2026-04-19T12:12:04.082Z</time></trkpt><trkpt lat="45.7054068" lon="9.5063767"><ele>281.0</ele><time>2026-04-19T12:12:07.284Z</time></trkpt><trkpt lat="45.7053663" lon="9.5062894"><ele>281.00000000000006</ele><time>2026-04-19T12:12:12.003Z</time></trkpt><trkpt lat="45.7053338" lon="9.5062121"><ele>281.0</ele><time>2026-04-19T12:12:16.745Z</time></trkpt><trkpt lat="45.705301" lon="9.5061316"><ele>280.8571428571429</ele><time>2026-04-19T12:12:20.522Z</time></trkpt><trkpt lat="45.7052801" lon="9.5060296"><ele>280.7142857142857</ele><time>2026-04-19T12:12:24.304Z</time></trkpt><trkpt lat="45.7052714" lon="9.5059286"><ele>280.57142857142856</ele><time>2026-04-19T12:12:29.043Z</time></trkpt><trkpt lat="45.7052386" lon="9.5058415"><ele>280.42857142857144</ele><time>2026-04-19T12:12:34.742Z</time></trkpt><trkpt lat="45.7052033" lon="9.5057654"><ele>280.2857142857143</ele><time>2026-04-19T12:12:38.545Z</time></trkpt><trkpt lat="45.7051727" lon="9.505675"><ele>280.14285714285717</ele><time>2026-04-19T12:12:43.281Z</time></trkpt><trkpt lat="45.7051165" lon="9.5056198"><ele>280.0</ele><time>2026-04-19T12:12:49.276Z</time></trkpt><trkpt lat="45.7050411" lon="9.5056495"><ele>279.14285714285717</ele><time>2026-04-19T12:12:54.299Z</time></trkpt><trkpt lat="45.7049727" lon="9.5057057"><ele>278.2857142857143</ele><time>2026-04-19T12:12:58.217Z</time></trkpt><trkpt lat="45.7049162" lon="9.5057497"><ele>277.42857142857144</ele><time>2026-04-19T12:13:02.083Z</time></trkpt><trkpt lat="45.7048552" lon="9.5057888"><ele>276.57142857142856</ele><time>2026-04-19T12:13:07.783Z</time></trkpt><trkpt lat="45.7047935" lon="9.5058156"><ele>275.7142857142857</ele><time>2026-04-19T12:13:11.546Z</time></trkpt><trkpt lat="45.7047326" lon="9.50585"><ele>274.8571428571429</ele><time>2026-04-19T12:13:15.323Z</time></trkpt><trkpt lat="45.7046694" lon="9.5058755"><ele>274.0</ele><time>2026-04-19T12:13:20.087Z</time></trkpt><trkpt lat="45.7045997" lon="9.5058724"><ele>274.00000000000006</ele><time>2026-04-19T12:13:26.246Z</time></trkpt><trkpt lat="45.7045327" lon="9.5059087"><ele>274.0</ele><time>2026-04-19T12:13:31.085Z</time></trkpt><trkpt lat="45.7044772" lon="9.5059654"><ele>274.0</ele><time>2026-04-19T12:13:34.902Z</time></trkpt><trkpt lat="45.7044176" lon="9.5060116"><ele>274.0</ele><time>2026-04-19T12:13:40.021Z</time></trkpt><trkpt lat="45.7043572" lon="9.5060585"><ele>274.0</ele><time>2026-04-19T12:13:44.784Z</time></trkpt><trkpt lat="45.7042961" lon="9.5061108"><ele>274.00000000000006</ele><time>2026-04-19T12:13:48.605Z</time></trkpt><trkpt lat="45.7042291" lon="9.5061494"><ele>274.0</ele><time>2026-04-19T12:13:52.444Z</time></trkpt><trkpt lat="45.7041701" lon="9.5061814"><ele>271.0</ele><time>2026-04-19T12:13:56.283Z</time></trkpt><trkpt lat="45.7041216" lon="9.5062524"><ele>273.0</ele><time>2026-04-19T12:14:02.282Z</time></trkpt><trkpt lat="45.7040614" lon="9.5062926"><ele>273.0</ele><time>2026-04-19T12:14:09.204Z</time></trkpt><trkpt lat="45.7039997" lon="9.5062688"><ele>273.0</ele><time>2026-04-19T12:14:13.202Z</time></trkpt><trkpt lat="45.7039632" lon="9.5061643"><ele>271.0</ele><time>2026-04-19T12:14:17.278Z</time></trkpt><trkpt lat="45.703937" lon="9.506057"><ele>271.0</ele><time>2026-04-19T12:14:21.196Z</time></trkpt><trkpt lat="45.7039225" lon="9.5059499"><ele>271.0</ele><time>2026-04-19T12:14:26.219Z</time></trkpt></trkseg></trk></gpx>